Observation data for Crane on 11/19/2019      Previous  Date       Current Mesonet Observations  Soil Data  Daily Summary Page  Observations in Plain Language
KCR2 190600Z 19008KT 15/04 A2996 RMK A01 T01530037  RH  046%=      5-min Rain = 0
KCR2 190601Z 19008KT 15/04 A2996 RMK A01 T01530037  RH  046%=      5-min Rain = 0
KCR2 190602Z 18007KT 15/04 A2996 RMK A01 T01540038  RH  046%=      5-min Rain = 0
KCR2 190603Z 18007KT 15/04 A2997 RMK A01 T01540037  RH  046%=      5-min Rain = 0
KCR2 190604Z 18006KT 15/04 A2997 RMK A01 T01540037  RH  046%=      5-min Rain = 0
KCR2 190605Z 18005KT 15/04 A2997 RMK A01 T01530037  RH  046%=      5-min Rain = 0
KCR2 190606Z 19006KT 15/04 A2997 RMK A01 T01520037  RH  046%=      5-min Rain = 0
KCR2 190607Z 19006KT 15/04 A2997 RMK A01 T01520038  RH  046%=      5-min Rain = 0
KCR2 190608Z 19005KT 15/04 A2997 RMK A01 T01530038  RH  046%=      5-min Rain = 0
KCR2 190609Z 19005KT 15/04 A2997 RMK A01 T01530038  RH  046%=      5-min Rain = 0
KCR2 190610Z 19004KT 15/04 A2997 RMK A01 T01520037  RH  046%=      5-min Rain = 0
KCR2 190611Z 18004KT 15/04 A2997 RMK A01 T01520038  RH  046%=      5-min Rain = 0
KCR2 190612Z 18005KT 15/04 A2997 RMK A01 T01520038  RH  046%=      5-min Rain = 0
KCR2 190613Z 18004KT 15/04 A2997 RMK A01 T01520037  RH  046%=      5-min Rain = 0
KCR2 190614Z 17003KT 15/04 A2997 RMK A01 T01510037  RH  046%=      5-min Rain = 0
KCR2 190615Z 18001KT 15/02 A2997 RMK A01 T01460024  RH  044%=      5-min Rain = 0
KCR2 190616Z 12001KT 14/02 A2997 RMK A01 T01360018  RH  045%=      5-min Rain = 0
KCR2 190617Z 12000KT 13/02 A2997 RMK A01 T01290022  RH  048%=      5-min Rain = 0
KCR2 190618Z 14000KT 13/03 A2997 RMK A01 T01280026  RH  050%=      5-min Rain = 0
KCR2 190619Z 03000KT 13/02 A2997 RMK A01 T01270023  RH  049%=      5-min Rain = 0
KCR2 190620Z 22000KT 12/02 A2997 RMK A01 T01240021  RH  049%=      5-min Rain = 0
KCR2 190621Z 33000KT 12/02 A2997 RMK A01 T01200019  RH  050%=      5-min Rain = 0
KCR2 190622Z 01000KT 12/02 A2997 RMK A01 T01160020  RH  051%=      5-min Rain = 0
KCR2 190623Z 01000KT 12/02 A2997 RMK A01 T01170023  RH  052%=      5-min Rain = 0
KCR2 190624Z 03000KT 12/02 A2997 RMK A01 T01150017  RH  051%=      5-min Rain = 0
KCR2 190625Z 02001KT 11/01 A2997 RMK A01 T01090013  RH  051%=      5-min Rain = 0
KCR2 190626Z 36001KT 10/01 A2997 RMK A01 T01030009  RH  052%=      5-min Rain = 0
KCR2 190627Z 01001KT 10/01 A2997 RMK A01 T00970006  RH  053%=      5-min Rain = 0
KCR2 190628Z 04001KT 09/00 A2997 RMK A01 T00940002  RH  053%=      5-min Rain = 0
KCR2 190629Z 04001KT 09/00 A2997 RMK A01 T00920002  RH  053%=      5-min Rain = 0
KCR2 190630Z 12000KT 09/01 A2997 RMK A01 T00920006  RH  055%=      5-min Rain = 0
KCR2 190631Z 20001KT 10/01 A2997 RMK A01 T00950007  RH  054%=      5-min Rain = 0
KCR2 190632Z 14000KT 10/02 A2997 RMK A01 T00980019  RH  058%=      5-min Rain = 0
KCR2 190633Z 16001KT 10/02 A2997 RMK A01 T01030019  RH  056%=      5-min Rain = 0
KCR2 190634Z 14001KT 11/02 A2997 RMK A01 T01060017  RH  054%=      5-min Rain = 0
KCR2 190635Z 17001KT 11/02 A2998 RMK A01 T01080019  RH  054%=      5-min Rain = 0
KCR2 190636Z 17002KT 11/03 A2997 RMK A01 T01110029  RH  057%=      5-min Rain = 0
KCR2 190637Z 17001KT 12/03 A2997 RMK A01 T01170033  RH  056%=      5-min Rain = 0
KCR2 190638Z 18002KT 12/03 A2997 RMK A01 T01200030  RH  054%=      5-min Rain = 0
KCR2 190639Z 17003KT 12/03 A2997 RMK A01 T01220030  RH  053%=      5-min Rain = 0
KCR2 190640Z 18003KT 12/03 A2997 RMK A01 T01240034  RH  054%=      5-min Rain = 0
KCR2 190641Z 19001KT 13/03 A2997 RMK A01 T01270034  RH  053%=      5-min Rain = 0
KCR2 190642Z 17002KT 13/03 A2997 RMK A01 T01280032  RH  052%=      5-min Rain = 0
KCR2 190643Z 19002KT 13/03 A2997 RMK A01 T01290033  RH  052%=      5-min Rain = 0
KCR2 190644Z 19002KT 13/04 A2997 RMK A01 T01300035  RH  052%=      5-min Rain = 0
KCR2 190645Z 18002KT 13/03 A2997 RMK A01 T01310033  RH  052%=      5-min Rain = 0
KCR2 190646Z 19002KT 13/03 A2997 RMK A01 T01310033  RH  051%=      5-min Rain = 0
KCR2 190647Z 18003KT 13/03 A2997 RMK A01 T01310034  RH  052%=      5-min Rain = 0
KCR2 190648Z 18003KT 13/04 A2997 RMK A01 T01320036  RH  052%=      5-min Rain = 0
KCR2 190649Z 18003KT 13/04 A2997 RMK A01 T01330037  RH  052%=      5-min Rain = 0
KCR2 190650Z 19002KT 13/03 A2997 RMK A01 T01320026  RH  049%=      5-min Rain = 0
KCR2 190651Z 19001KT 13/02 A2997 RMK A01 T01260019  RH  048%=      5-min Rain = 0
KCR2 190652Z 19001KT 12/01 A2997 RMK A01 T01170007  RH  047%=      5-min Rain = 0
KCR2 190653Z 20000KT 11/00 A2997 RMK A01 T01050000  RH  048%=      5-min Rain = 0
KCR2 190654Z 19000KT 10/00 A2997 RMK A01 T00980000  RH  051%=      5-min Rain = 0
KCR2 190655Z 00000KT 09/00 A2997 RMK A01 T00930004  RH  053%=      5-min Rain = 0
KCR2 190656Z 00000KT 09/00 A2997 RMK A01 T00920004  RH  054%=      5-min Rain = 0
KCR2 190657Z 00000KT 09/00 A2997 RMK A01 T00890000  RH  054%=      5-min Rain = 0
KCR2 190658Z 00000KT 09/00 A2997 RMK A01 T00870001  RH  055%=      5-min Rain = 0
KCR2 190659Z 16000KT 09/00 A2997 RMK A01 T00860001  RH  055%=      5-min Rain = 0
KCR2 190700Z 00000KT 09/00 A2997 RMK A01 T008500-0  RH  055%=      5-min Rain = 0
KCR2 190701Z 00000KT 08/M00 A2997 RMK A01 T00841002  RH  055%=      5-min Rain = 0
KCR2 190702Z 23000KT 08/M00 A2997 RMK A01 T00821002  RH  055%=      5-min Rain = 0
KCR2 190703Z 00000KT 08/M00 A2997 RMK A01 T00811004  RH  055%=      5-min Rain = 0
KCR2 190704Z 00000KT 08/M01 A2997 RMK A01 T00791005  RH  055%=      5-min Rain = 0
KCR2 190705Z 24000KT 08/M01 A2997 RMK A01 T00781006  RH  055%=      5-min Rain = 0
KCR2 190706Z 21001KT 08/M01 A2997 RMK A01 T00781007  RH  055%=      5-min Rain = 0
KCR2 190707Z 22001KT 08/M01 A2997 RMK A01 T00781006  RH  055%=      5-min Rain = 0
KCR2 190708Z 21000KT 08/M01 A2997 RMK A01 T00781007  RH  055%=      5-min Rain = 0
KCR2 190709Z 20001KT 08/M01 A2998 RMK A01 T00781008  RH  054%=      5-min Rain = 0
KCR2 190710Z 20001KT 08/M01 A2998 RMK A01 T00781009  RH  054%=      5-min Rain = 0
KCR2 190711Z 21000KT 08/M01 A2998 RMK A01 T00781008  RH  055%=      5-min Rain = 0
KCR2 190712Z 00000KT 08/M01 A2998 RMK A01 T00771008  RH  055%=      5-min Rain = 0
KCR2 190713Z 06000KT 08/M01 A2998 RMK A01 T00761008  RH  055%=      5-min Rain = 0
KCR2 190714Z 07000KT 08/M01 A2998 RMK A01 T00761009  RH  055%=      5-min Rain = 0
KCR2 190715Z 09000KT 08/M01 A2998 RMK A01 T00761009  RH  055%=      5-min Rain = 0
KCR2 190716Z 17000KT 08/M01 A2997 RMK A01 T00761009  RH  055%=      5-min Rain = 0
KCR2 190717Z 07001KT 08/M01 A2997 RMK A01 T00761008  RH  055%=      5-min Rain = 0
KCR2 190718Z 06001KT 08/M01 A2997 RMK A01 T00761007  RH  056%=      5-min Rain = 0
KCR2 190719Z 05001KT 08/M01 A2997 RMK A01 T00751008  RH  056%=      5-min Rain = 0
KCR2 190720Z 05002KT 08/M01 A2997 RMK A01 T00751008  RH  056%=      5-min Rain = 0
KCR2 190721Z 04002KT 07/M01 A2997 RMK A01 T00741008  RH  056%=      5-min Rain = 0
KCR2 190722Z 04002KT 07/M01 A2997 RMK A01 T00731009  RH  056%=      5-min Rain = 0
KCR2 190723Z 03001KT 08/M01 A2997 RMK A01 T00751010  RH  055%=      5-min Rain = 0
KCR2 190724Z 04002KT 08/M01 A2997 RMK A01 T00761010  RH  054%=      5-min Rain = 0
KCR2 190725Z 06001KT 08/M01 A2997 RMK A01 T00771010  RH  054%=      5-min Rain = 0
KCR2 190726Z 06001KT 08/M01 A2997 RMK A01 T00771009  RH  054%=      5-min Rain = 0
KCR2 190727Z 08001KT 08/M01 A2997 RMK A01 T00781009  RH  054%=      5-min Rain = 0
KCR2 190728Z 09001KT 08/M01 A2997 RMK A01 T00781008  RH  055%=      5-min Rain = 0
KCR2 190729Z 16001KT 08/M01 A2997 RMK A01 T00771009  RH  054%=      5-min Rain = 0
KCR2 190730Z 16001KT 08/M01 A2997 RMK A01 T00771009  RH  054%=      5-min Rain = 0
KCR2 190731Z 18001KT 08/M01 A2997 RMK A01 T00771010  RH  054%=      5-min Rain = 0
KCR2 190732Z 19002KT 08/M01 A2997 RMK A01 T00771010  RH  054%=      5-min Rain = 0
KCR2 190733Z 18003KT 08/M01 A2997 RMK A01 T00771010  RH  054%=      5-min Rain = 0
KCR2 190734Z 19004KT 08/M01 A2997 RMK A01 T00771010  RH  054%=      5-min Rain = 0
KCR2 190735Z 18003KT 08/M01 A2997 RMK A01 T00771009  RH  055%=      5-min Rain = 0
KCR2 190736Z 18003KT 08/M00 A2997 RMK A01 T00781004  RH  056%=      5-min Rain = 0
KCR2 190737Z 18004KT 08/00 A2997 RMK A01 T00790001  RH  058%=      5-min Rain = 0
KCR2 190738Z 19004KT 08/01 A2997 RMK A01 T00820005  RH  059%=      5-min Rain = 0
KCR2 190739Z 18004KT 09/01 A2997 RMK A01 T00860008  RH  058%=      5-min Rain = 0
KCR2 190740Z 18004KT 09/00 A2997 RMK A01 T00880003  RH  055%=      5-min Rain = 0
KCR2 190741Z 17005KT 09/01 A2997 RMK A01 T00890012  RH  058%=      5-min Rain = 0
KCR2 190742Z 18004KT 09/02 A2997 RMK A01 T00940022  RH  060%=      5-min Rain = 0
KCR2 190743Z 17003KT 10/02 A2997 RMK A01 T00980020  RH  058%=      5-min Rain = 0
KCR2 190744Z 16002KT 10/01 A2997 RMK A01 T00980013  RH  055%=      5-min Rain = 0
KCR2 190745Z 13002KT 10/02 A2997 RMK A01 T00970016  RH  057%=      5-min Rain = 0
KCR2 190746Z 12002KT 10/02 A2997 RMK A01 T00980015  RH  056%=      5-min Rain = 0
KCR2 190747Z 09002KT 10/01 A2997 RMK A01 T00980010  RH  054%=      5-min Rain = 0
KCR2 190748Z 08002KT 09/00 A2997 RMK A01 T00940004  RH  053%=      5-min Rain = 0
KCR2 190749Z 10002KT 09/00 A2997 RMK A01 T00890004  RH  055%=      5-min Rain = 0
KCR2 190750Z 10002KT 09/00 A2997 RMK A01 T00870004  RH  056%=      5-min Rain = 0
KCR2 190751Z 08002KT 09/01 A2997 RMK A01 T00870009  RH  058%=      5-min Rain = 0
KCR2 190752Z 09001KT 09/01 A2997 RMK A01 T00860008  RH  058%=      5-min Rain = 0
KCR2 190753Z 11001KT 09/01 A2997 RMK A01 T00860009  RH  058%=      5-min Rain = 0
KCR2 190754Z 13002KT 09/01 A2997 RMK A01 T00870012  RH  059%=      5-min Rain = 0
KCR2 190755Z 10001KT 09/01 A2997 RMK A01 T00900014  RH  059%=      5-min Rain = 0
KCR2 190756Z 13001KT 09/01 A2997 RMK A01 T00910012  RH  058%=      5-min Rain = 0
KCR2 190757Z 16001KT 09/02 A2997 RMK A01 T00920020  RH  061%=      5-min Rain = 0
KCR2 190758Z 15001KT 09/02 A2997 RMK A01 T00940023  RH  061%=      5-min Rain = 0
KCR2 190759Z 18002KT 10/03 A2997 RMK A01 T00970028  RH  062%=      5-min Rain = 0
KCR2 190800Z 19002KT 10/03 A2997 RMK A01 T01000027  RH  060%=      5-min Rain = 0
KCR2 190801Z 19002KT 11/03 A2997 RMK A01 T01050034  RH  061%=      5-min Rain = 0
KCR2 190802Z 18002KT 11/03 A2997 RMK A01 T01070034  RH  061%=      5-min Rain = 0
KCR2 190803Z 19004KT 11/03 A2997 RMK A01 T01080030  RH  059%=      5-min Rain = 0
KCR2 190804Z 19004KT 11/03 A2997 RMK A01 T01080025  RH  057%=      5-min Rain = 0
KCR2 190805Z 19004KT 11/03 A2997 RMK A01 T01080033  RH  060%=      5-min Rain = 0
KCR2 190806Z 19005KT 12/05 A2997 RMK A01 T01160047  RH  062%=      5-min Rain = 0
KCR2 190807Z 18004KT 12/04 A2997 RMK A01 T01210042  RH  059%=      5-min Rain = 0
KCR2 190808Z 18005KT 12/05 A2997 RMK A01 T01230045  RH  059%=      5-min Rain = 0
KCR2 190809Z 18005KT 13/05 A2997 RMK A01 T01270047  RH  058%=      5-min Rain = 0
KCR2 190810Z 18005KT 13/05 A2997 RMK A01 T01310048  RH  057%=      5-min Rain = 0
KCR2 190811Z 18004KT 13/04 A2997 RMK A01 T01320044  RH  055%=      5-min Rain = 0
KCR2 190812Z 18004KT 13/04 A2997 RMK A01 T01310040  RH  054%=      5-min Rain = 0
KCR2 190813Z 18005KT 13/04 A2997 RMK A01 T01300039  RH  054%=      5-min Rain = 0
KCR2 190814Z 17004KT 13/03 A2997 RMK A01 T01280034  RH  053%=      5-min Rain = 0
KCR2 190815Z 17004KT 13/03 A2997 RMK A01 T01250028  RH  052%=      5-min Rain = 0
KCR2 190816Z 17003KT 12/02 A2997 RMK A01 T01200022  RH  051%=      5-min Rain = 0
KCR2 190817Z 16001KT 11/01 A2997 RMK A01 T01110011  RH  050%=      5-min Rain = 0
KCR2 190818Z 09001KT 10/01 A2997 RMK A01 T01020007  RH  051%=      5-min Rain = 0
KCR2 190819Z 13002KT 10/01 A2997 RMK A01 T00950005  RH  053%=      5-min Rain = 0
KCR2 190820Z 11002KT 09/01 A2997 RMK A01 T00900007  RH  056%=      5-min Rain = 0
KCR2 190821Z 11002KT 09/01 A2997 RMK A01 T00870007  RH  057%=      5-min Rain = 0
KCR2 190822Z 12002KT 09/01 A2997 RMK A01 T00870012  RH  059%=      5-min Rain = 0
KCR2 190823Z 10001KT 09/02 A2997 RMK A01 T00890018  RH  061%=      5-min Rain = 0
KCR2 190824Z 11002KT 09/02 A2997 RMK A01 T00920019  RH  060%=      5-min Rain = 0
KCR2 190825Z 10003KT 09/02 A2997 RMK A01 T00940016  RH  058%=      5-min Rain = 0
KCR2 190826Z 10002KT 09/02 A2997 RMK A01 T00930015  RH  058%=      5-min Rain = 0
KCR2 190827Z 08002KT 09/02 A2997 RMK A01 T00920018  RH  060%=      5-min Rain = 0
KCR2 190828Z 08002KT 09/01 A2997 RMK A01 T00930014  RH  058%=      5-min Rain = 0
KCR2 190829Z 07002KT 09/01 A2997 RMK A01 T00900009  RH  057%=      5-min Rain = 0
KCR2 190830Z 06002KT 09/01 A2997 RMK A01 T00850005  RH  057%=      5-min Rain = 0
KCR2 190831Z 09002KT 08/00 A2996 RMK A01 T00820004  RH  058%=      5-min Rain = 0
KCR2 190832Z 06001KT 08/01 A2997 RMK A01 T00800007  RH  060%=      5-min Rain = 0
KCR2 190833Z 07002KT 08/00 A2996 RMK A01 T00790004  RH  059%=      5-min Rain = 0
KCR2 190834Z 14001KT 08/01 A2996 RMK A01 T00770006  RH  061%=      5-min Rain = 0
KCR2 190835Z 15001KT 08/02 A2996 RMK A01 T00790017  RH  065%=      5-min Rain = 0
KCR2 190836Z 18000KT 08/02 A2996 RMK A01 T00830018  RH  064%=      5-min Rain = 0
KCR2 190837Z 20001KT 09/03 A2996 RMK A01 T00860026  RH  066%=      5-min Rain = 0
KCR2 190838Z 20002KT 09/03 A2996 RMK A01 T00900025  RH  064%=      5-min Rain = 0
KCR2 190839Z 21003KT 10/04 A2996 RMK A01 T00960037  RH  067%=      5-min Rain = 0
KCR2 190840Z 20002KT 11/05 A2996 RMK A01 T01070046  RH  066%=      5-min Rain = 0
KCR2 190841Z 21004KT 12/04 A2996 RMK A01 T01150043  RH  061%=      5-min Rain = 0
KCR2 190842Z 20003KT 12/04 A2996 RMK A01 T01200043  RH  059%=      5-min Rain = 0
KCR2 190843Z 20004KT 12/04 A2996 RMK A01 T01240043  RH  058%=      5-min Rain = 0
KCR2 190844Z 21003KT 13/04 A2996 RMK A01 T01260043  RH  057%=      5-min Rain = 0
KCR2 190845Z 20004KT 13/04 A2996 RMK A01 T01280043  RH  056%=      5-min Rain = 0
KCR2 190846Z 21004KT 13/04 A2996 RMK A01 T01300043  RH  056%=      5-min Rain = 0
KCR2 190847Z 20004KT 13/04 A2996 RMK A01 T01310042  RH  055%=      5-min Rain = 0
KCR2 190848Z 20005KT 13/04 A2996 RMK A01 T01300041  RH  055%=      5-min Rain = 0
KCR2 190849Z 20004KT 13/04 A2996 RMK A01 T01300043  RH  055%=      5-min Rain = 0
KCR2 190850Z 20005KT 13/04 A2996 RMK A01 T01310043  RH  055%=      5-min Rain = 0
KCR2 190851Z 19004KT 13/05 A2996 RMK A01 T01320045  RH  055%=      5-min Rain = 0
KCR2 190852Z 19005KT 13/05 A2996 RMK A01 T01330045  RH  055%=      5-min Rain = 0
KCR2 190853Z 19004KT 13/05 A2996 RMK A01 T01340045  RH  055%=      5-min Rain = 0
KCR2 190854Z 19006KT 13/05 A2996 RMK A01 T01340045  RH  055%=      5-min Rain = 0
KCR2 190855Z 18005KT 13/05 A2996 RMK A01 T01330045  RH  055%=      5-min Rain = 0
KCR2 190856Z 18005KT 13/05 A2996 RMK A01 T01340045  RH  055%=      5-min Rain = 0
KCR2 190857Z 17005KT 13/05 A2996 RMK A01 T01340045  RH  055%=      5-min Rain = 0
KCR2 190858Z 16003KT 13/04 A2996 RMK A01 T01320035  RH  052%=      5-min Rain = 0
KCR2 190859Z 09003KT 12/01 A2996 RMK A01 T01190013  RH  048%=      5-min Rain = 0
KCR2 190900Z 10002KT 10/01 A2996 RMK A01 T01040007  RH  051%=      5-min Rain = 0
KCR2 190901Z 10002KT 09/01 A2996 RMK A01 T00940007  RH  055%=      5-min Rain = 0
KCR2 190902Z 10002KT 09/01 A2996 RMK A01 T00890010  RH  058%=      5-min Rain = 0
KCR2 190903Z 10002KT 09/01 A2996 RMK A01 T00860014  RH  060%=      5-min Rain = 0
KCR2 190904Z 11002KT 09/02 A2995 RMK A01 T00860017  RH  062%=      5-min Rain = 0
KCR2 190905Z 12002KT 09/02 A2995 RMK A01 T00880022  RH  063%=      5-min Rain = 0
KCR2 190906Z 11002KT 09/03 A2996 RMK A01 T00930027  RH  063%=      5-min Rain = 0
KCR2 190907Z 10002KT 10/03 A2996 RMK A01 T00960029  RH  063%=      5-min Rain = 0
KCR2 190908Z 10002KT 10/03 A2996 RMK A01 T01020034  RH  063%=      5-min Rain = 0
KCR2 190909Z 11003KT 11/03 A2996 RMK A01 T01050028  RH  059%=      5-min Rain = 0
KCR2 190910Z 11002KT 11/03 A2996 RMK A01 T01050032  RH  060%=      5-min Rain = 0
KCR2 190911Z 10002KT 10/02 A2996 RMK A01 T01040021  RH  056%=      5-min Rain = 0
KCR2 190912Z 11002KT 10/02 A2996 RMK A01 T00950015  RH  057%=      5-min Rain = 0
KCR2 190913Z 12002KT 09/01 A2996 RMK A01 T00880013  RH  059%=      5-min Rain = 0
KCR2 190914Z 15002KT 08/01 A2996 RMK A01 T00840013  RH  061%=      5-min Rain = 0
KCR2 190915Z 14001KT 08/01 A2996 RMK A01 T00810013  RH  062%=      5-min Rain = 0
KCR2 190916Z 16002KT 08/01 A2996 RMK A01 T00800014  RH  063%=      5-min Rain = 0
KCR2 190917Z 17002KT 08/02 A2995 RMK A01 T00800018  RH  065%=      5-min Rain = 0
KCR2 190918Z 18002KT 08/02 A2995 RMK A01 T00810017  RH  064%=      5-min Rain = 0
KCR2 190919Z 19004KT 08/02 A2995 RMK A01 T00810015  RH  063%=      5-min Rain = 0
KCR2 190920Z 19003KT 08/02 A2995 RMK A01 T00810019  RH  065%=      5-min Rain = 0
KCR2 190921Z 19003KT 08/02 A2995 RMK A01 T00800015  RH  063%=      5-min Rain = 0
KCR2 190922Z 17002KT 08/02 A2995 RMK A01 T00800016  RH  064%=      5-min Rain = 0
KCR2 190923Z 18002KT 08/01 A2995 RMK A01 T00770013  RH  064%=      5-min Rain = 0
KCR2 190924Z 14001KT 08/01 A2995 RMK A01 T00750011  RH  064%=      5-min Rain = 0
KCR2 190925Z 12001KT 07/01 A2995 RMK A01 T00720011  RH  065%=      5-min Rain = 0
KCR2 190926Z 12002KT 07/01 A2995 RMK A01 T00710012  RH  066%=      5-min Rain = 0
KCR2 190927Z 11002KT 07/01 A2995 RMK A01 T00700012  RH  066%=      5-min Rain = 0
KCR2 190928Z 11002KT 07/01 A2996 RMK A01 T00690012  RH  067%=      5-min Rain = 0
KCR2 190929Z 10003KT 07/01 A2996 RMK A01 T00680012  RH  067%=      5-min Rain = 0
KCR2 190930Z 09003KT 07/01 A2996 RMK A01 T00670011  RH  067%=      5-min Rain = 0
KCR2 190931Z 10003KT 07/01 A2996 RMK A01 T00660011  RH  068%=      5-min Rain = 0
KCR2 190932Z 11002KT 07/01 A2996 RMK A01 T00650011  RH  068%=      5-min Rain = 0
KCR2 190933Z 12002KT 07/01 A2996 RMK A01 T00650011  RH  069%=      5-min Rain = 0
KCR2 190934Z 13002KT 07/01 A2996 RMK A01 T00650011  RH  069%=      5-min Rain = 0
KCR2 190935Z 14001KT 06/01 A2996 RMK A01 T00640011  RH  069%=      5-min Rain = 0
KCR2 190936Z 15001KT 06/01 A2996 RMK A01 T00640011  RH  069%=      5-min Rain = 0
KCR2 190937Z 16002KT 06/01 A2996 RMK A01 T00630011  RH  069%=      5-min Rain = 0
KCR2 190938Z 16001KT 06/01 A2996 RMK A01 T00630011  RH  069%=      5-min Rain = 0
KCR2 190939Z 17001KT 06/01 A2996 RMK A01 T00630011  RH  069%=      5-min Rain = 0
KCR2 190940Z 17001KT 06/01 A2996 RMK A01 T00620011  RH  070%=      5-min Rain = 0
KCR2 190941Z 19002KT 06/01 A2996 RMK A01 T00620011  RH  070%=      5-min Rain = 0
KCR2 190942Z 20002KT 06/01 A2996 RMK A01 T00620012  RH  070%=      5-min Rain = 0
KCR2 190943Z 19003KT 06/01 A2996 RMK A01 T00630012  RH  070%=      5-min Rain = 0
KCR2 190944Z 20004KT 06/02 A2996 RMK A01 T00640016  RH  071%=      5-min Rain = 0
KCR2 190945Z 19004KT 07/02 A2996 RMK A01 T00660015  RH  070%=      5-min Rain = 0
KCR2 190946Z 19004KT 07/01 A2996 RMK A01 T00670014  RH  069%=      5-min Rain = 0
KCR2 190947Z 19003KT 07/01 A2996 RMK A01 T00670013  RH  069%=      5-min Rain = 0
KCR2 190948Z 20003KT 07/01 A2996 RMK A01 T00660013  RH  069%=      5-min Rain = 0
KCR2 190949Z 19002KT 07/01 A2996 RMK A01 T00660014  RH  069%=      5-min Rain = 0
KCR2 190950Z 18002KT 07/01 A2996 RMK A01 T00650012  RH  069%=      5-min Rain = 0
KCR2 190951Z 14001KT 06/01 A2996 RMK A01 T00630012  RH  069%=      5-min Rain = 0
KCR2 190952Z 12001KT 06/01 A2996 RMK A01 T00620012  RH  070%=      5-min Rain = 0
KCR2 190953Z 12001KT 06/01 A2996 RMK A01 T00630014  RH  071%=      5-min Rain = 0
KCR2 190954Z 11002KT 06/02 A2996 RMK A01 T00630015  RH  071%=      5-min Rain = 0
KCR2 190955Z 12002KT 06/02 A2996 RMK A01 T00640015  RH  071%=      5-min Rain = 0
KCR2 190956Z 11001KT 06/01 A2996 RMK A01 T00630014  RH  071%=      5-min Rain = 0
KCR2 190957Z 11001KT 06/02 A2996 RMK A01 T00630015  RH  071%=      5-min Rain = 0
KCR2 190958Z 10001KT 06/02 A2996 RMK A01 T00630016  RH  072%=      5-min Rain = 0
KCR2 190959Z 10002KT 06/02 A2996 RMK A01 T00630015  RH  072%=      5-min Rain = 0
KCR2 191000Z 10001KT 06/02 A2996 RMK A01 T00620016  RH  072%=      5-min Rain = 0
KCR2 191001Z 09002KT 06/02 A2996 RMK A01 T00620016  RH  072%=      5-min Rain = 0
KCR2 191002Z 11002KT 06/02 A2996 RMK A01 T00620016  RH  072%=      5-min Rain = 0
KCR2 191003Z 10001KT 06/02 A2996 RMK A01 T00630016  RH  072%=      5-min Rain = 0
KCR2 191004Z 09002KT 06/02 A2996 RMK A01 T00630015  RH  071%=      5-min Rain = 0
KCR2 191005Z 09002KT 06/02 A2996 RMK A01 T00620015  RH  072%=      5-min Rain = 0
KCR2 191006Z 09003KT 06/02 A2996 RMK A01 T00620015  RH  072%=      5-min Rain = 0
KCR2 191007Z 08003KT 06/02 A2996 RMK A01 T00620015  RH  072%=      5-min Rain = 0
KCR2 191008Z 07004KT 06/01 A2996 RMK A01 T00610014  RH  071%=      5-min Rain = 0
KCR2 191009Z 08005KT 06/01 A2996 RMK A01 T00600013  RH  072%=      5-min Rain = 0
KCR2 191010Z 08005KT 06/01 A2996 RMK A01 T00590013  RH  072%=      5-min Rain = 0
KCR2 191011Z 08005KT 06/01 A2996 RMK A01 T00590013  RH  072%=      5-min Rain = 0
KCR2 191012Z 08004KT 06/01 A2996 RMK A01 T00590013  RH  073%=      5-min Rain = 0
KCR2 191013Z 09004KT 06/01 A2996 RMK A01 T00580013  RH  073%=      5-min Rain = 0
KCR2 191014Z 09003KT 06/01 A2996 RMK A01 T00580013  RH  073%=      5-min Rain = 0
KCR2 191015Z 08003KT 06/01 A2996 RMK A01 T00580013  RH  073%=      5-min Rain = 0
KCR2 191016Z 09003KT 06/01 A2996 RMK A01 T00580013  RH  073%=      5-min Rain = 0
KCR2 191017Z 08003KT 06/01 A2996 RMK A01 T00580013  RH  073%=      5-min Rain = 0
KCR2 191018Z 06002KT 06/01 A2996 RMK A01 T00580013  RH  073%=      5-min Rain = 0
KCR2 191019Z 06002KT 06/01 A2996 RMK A01 T00570012  RH  073%=      5-min Rain = 0
KCR2 191020Z 04002KT 06/01 A2996 RMK A01 T00560013  RH  074%=      5-min Rain = 0
KCR2 191021Z 04002KT 06/01 A2996 RMK A01 T00550012  RH  074%=      5-min Rain = 0
KCR2 191022Z 04002KT 05/01 A2996 RMK A01 T00540012  RH  074%=      5-min Rain = 0
KCR2 191023Z 05002KT 05/01 A2996 RMK A01 T00540012  RH  074%=      5-min Rain = 0
KCR2 191024Z 05003KT 05/01 A2996 RMK A01 T00540011  RH  074%=      5-min Rain = 0
KCR2 191025Z 05003KT 05/01 A2996 RMK A01 T00540013  RH  075%=      5-min Rain = 0
KCR2 191026Z 06003KT 06/01 A2996 RMK A01 T00550014  RH  075%=      5-min Rain = 0
KCR2 191027Z 06003KT 06/01 A2996 RMK A01 T00550014  RH  075%=      5-min Rain = 0
KCR2 191028Z 06003KT 06/01 A2996 RMK A01 T00560014  RH  074%=      5-min Rain = 0
KCR2 191029Z 06002KT 06/01 A2996 RMK A01 T00560014  RH  074%=      5-min Rain = 0
KCR2 191030Z 06003KT 06/01 A2996 RMK A01 T00560014  RH  074%=      5-min Rain = 0
KCR2 191031Z 06003KT 06/01 A2996 RMK A01 T00560013  RH  074%=      5-min Rain = 0
KCR2 191032Z 06004KT 06/01 A2996 RMK A01 T00550013  RH  074%=      5-min Rain = 0
KCR2 191033Z 06004KT 05/01 A2996 RMK A01 T00540013  RH  075%=      5-min Rain = 0
KCR2 191034Z 06005KT 05/01 A2996 RMK A01 T00540013  RH  075%=      5-min Rain = 0
KCR2 191035Z 07004KT 05/01 A2996 RMK A01 T00530012  RH  075%=      5-min Rain = 0
KCR2 191036Z 07005KT 05/01 A2996 RMK A01 T00530013  RH  076%=      5-min Rain = 0
KCR2 191037Z 07004KT 05/01 A2996 RMK A01 T00520013  RH  076%=      5-min Rain = 0
KCR2 191038Z 08003KT 05/01 A2996 RMK A01 T00530013  RH  076%=      5-min Rain = 0
KCR2 191039Z 08004KT 05/01 A2996 RMK A01 T00530013  RH  075%=      5-min Rain = 0
KCR2 191040Z 07004KT 05/01 A2996 RMK A01 T00520012  RH  075%=      5-min Rain = 0
KCR2 191041Z 07003KT 05/01 A2996 RMK A01 T00510011  RH  075%=      5-min Rain = 0
KCR2 191042Z 07002KT 05/01 A2996 RMK A01 T00500011  RH  076%=      5-min Rain = 0
KCR2 191043Z 06002KT 05/01 A2996 RMK A01 T00500012  RH  077%=      5-min Rain = 0
KCR2 191044Z 05003KT 05/01 A2996 RMK A01 T00500014  RH  077%=      5-min Rain = 0
KCR2 191045Z 05003KT 05/02 A2996 RMK A01 T00520015  RH  077%=      5-min Rain = 0
KCR2 191046Z 05003KT 05/02 A2996 RMK A01 T00530015  RH  077%=      5-min Rain = 0
KCR2 191047Z 05003KT 05/01 A2996 RMK A01 T00530014  RH  076%=      5-min Rain = 0
KCR2 191048Z 06003KT 05/01 A2996 RMK A01 T00530014  RH  076%=      5-min Rain = 0
KCR2 191049Z 06004KT 05/01 A2996 RMK A01 T00520014  RH  076%=      5-min Rain = 0
KCR2 191050Z 06005KT 05/01 A2996 RMK A01 T00520014  RH  076%=      5-min Rain = 0
KCR2 191051Z 06006KT 05/01 A2996 RMK A01 T00520013  RH  076%=      5-min Rain = 0
KCR2 191052Z 07005KT 05/01 A2996 RMK A01 T00520014  RH  077%=      5-min Rain = 0
KCR2 191053Z 07005KT 05/01 A2996 RMK A01 T00510013  RH  076%=      5-min Rain = 0
KCR2 191054Z 06005KT 05/01 A2996 RMK A01 T00500012  RH  076%=      5-min Rain = 0
KCR2 191055Z 06005KT 05/01 A2996 RMK A01 T00500013  RH  077%=      5-min Rain = 0
KCR2 191056Z 06005KT 05/02 A2996 RMK A01 T00510015  RH  078%=      5-min Rain = 0
KCR2 191057Z 06005KT 05/02 A2996 RMK A01 T00510015  RH  078%=      5-min Rain = 0
KCR2 191058Z 06004KT 05/02 A2996 RMK A01 T00520015  RH  077%=      5-min Rain = 0
KCR2 191059Z 06005KT 05/02 A2996 RMK A01 T00520016  RH  077%=      5-min Rain = 0
KCR2 191100Z 07005KT 05/02 A2996 RMK A01 T00530017  RH  077%=      5-min Rain = 0
KCR2 191101Z 07005KT 05/02 A2996 RMK A01 T00530016  RH  077%=      5-min Rain = 0
KCR2 191102Z 08005KT 05/02 A2996 RMK A01 T00530016  RH  077%=      5-min Rain = 0
KCR2 191103Z 08005KT 05/02 A2996 RMK A01 T00530017  RH  077%=      5-min Rain = 0
KCR2 191104Z 08005KT 05/02 A2996 RMK A01 T00540016  RH  077%=      5-min Rain = 0
KCR2 191105Z 08005KT 05/02 A2996 RMK A01 T00540016  RH  076%=      5-min Rain = 0
KCR2 191106Z 08005KT 05/02 A2996 RMK A01 T00540015  RH  076%=      5-min Rain = 0
KCR2 191107Z 08005KT 05/01 A2996 RMK A01 T00530014  RH  076%=      5-min Rain = 0
KCR2 191108Z 08005KT 05/01 A2996 RMK A01 T00520014  RH  076%=      5-min Rain = 0
KCR2 191109Z 07006KT 05/01 A2996 RMK A01 T00520014  RH  077%=      5-min Rain = 0
KCR2 191110Z 07006KT 05/01 A2996 RMK A01 T00510014  RH  077%=      5-min Rain = 0
KCR2 191111Z 07006KT 05/01 A2996 RMK A01 T00510014  RH  077%=      5-min Rain = 0
KCR2 191112Z 07006KT 05/02 A2996 RMK A01 T00510015  RH  077%=      5-min Rain = 0
KCR2 191113Z 08006KT 05/02 A2996 RMK A01 T00510015  RH  078%=      5-min Rain = 0
KCR2 191114Z 08006KT 05/02 A2996 RMK A01 T00520016  RH  078%=      5-min Rain = 0
KCR2 191115Z 08006KT 05/02 A2996 RMK A01 T00530017  RH  078%=      5-min Rain = 0
KCR2 191116Z 08006KT 05/02 A2996 RMK A01 T00530018  RH  078%=      5-min Rain = 0
KCR2 191117Z 08006KT 06/02 A2996 RMK A01 T00550018  RH  078%=      5-min Rain = 0
KCR2 191118Z 08006KT 06/02 A2996 RMK A01 T00550018  RH  077%=      5-min Rain = 0
KCR2 191119Z 08006KT 06/02 A2996 RMK A01 T00560018  RH  077%=      5-min Rain = 0
KCR2 191120Z 08006KT 06/02 A2996 RMK A01 T00560019  RH  077%=      5-min Rain = 0
KCR2 191121Z 08005KT 06/02 A2996 RMK A01 T00560018  RH  077%=      5-min Rain = 0
KCR2 191122Z 08004KT 06/02 A2996 RMK A01 T00570019  RH  077%=      5-min Rain = 0
KCR2 191123Z 08004KT 06/02 A2996 RMK A01 T00570018  RH  076%=      5-min Rain = 0
KCR2 191124Z 08004KT 06/02 A2996 RMK A01 T00570018  RH  076%=      5-min Rain = 0
KCR2 191125Z 08004KT 06/02 A2996 RMK A01 T00560018  RH  076%=      5-min Rain = 0
KCR2 191126Z 08004KT 06/02 A2996 RMK A01 T00560018  RH  076%=      5-min Rain = 0
KCR2 191127Z 08004KT 06/02 A2996 RMK A01 T00550017  RH  076%=      5-min Rain = 0
KCR2 191128Z 08004KT 06/02 A2996 RMK A01 T00550017  RH  076%=      5-min Rain = 0
KCR2 191129Z 08005KT 06/02 A2996 RMK A01 T00550017  RH  077%=      5-min Rain = 0
KCR2 191130Z 08005KT 06/02 A2996 RMK A01 T00550017  RH  077%=      5-min Rain = 0
KCR2 191131Z 08005KT 06/02 A2996 RMK A01 T00550017  RH  077%=      5-min Rain = 0
KCR2 191132Z 08005KT 06/02 A2996 RMK A01 T00550017  RH  077%=      5-min Rain = 0
KCR2 191133Z 08006KT 05/02 A2996 RMK A01 T00540017  RH  077%=      5-min Rain = 0
KCR2 191134Z 08006KT 05/02 A2996 RMK A01 T00540017  RH  077%=      5-min Rain = 0
KCR2 191135Z 08005KT 05/02 A2996 RMK A01 T00540017  RH  077%=      5-min Rain = 0
KCR2 191136Z 08005KT 05/02 A2996 RMK A01 T00540018  RH  077%=      5-min Rain = 0
KCR2 191137Z 08005KT 05/02 A2996 RMK A01 T00540018  RH  077%=      5-min Rain = 0
KCR2 191138Z 08005KT 05/02 A2996 RMK A01 T00540018  RH  077%=      5-min Rain = 0
KCR2 191139Z 08005KT 06/02 A2996 RMK A01 T00550018  RH  077%=      5-min Rain = 0
KCR2 191140Z 08005KT 06/02 A2996 RMK A01 T00550018  RH  077%=      5-min Rain = 0
KCR2 191141Z 08005KT 06/02 A2996 RMK A01 T00550018  RH  077%=      5-min Rain = 0
KCR2 191142Z 09005KT 06/02 A2996 RMK A01 T00550018  RH  077%=      5-min Rain = 0
KCR2 191143Z 09005KT 06/02 A2996 RMK A01 T00550019  RH  077%=      5-min Rain = 0
KCR2 191144Z 09005KT 06/02 A2996 RMK A01 T00550019  RH  077%=      5-min Rain = 0
KCR2 191145Z 09005KT 06/02 A2996 RMK A01 T00550018  RH  077%=      5-min Rain = 0
KCR2 191146Z 09005KT 06/02 A2996 RMK A01 T00550018  RH  077%=      5-min Rain = 0
KCR2 191147Z 09005KT 05/02 A2996 RMK A01 T00540017  RH  077%=      5-min Rain = 0
KCR2 191148Z 09004KT 05/02 A2996 RMK A01 T00540017  RH  077%=      5-min Rain = 0
KCR2 191149Z 09003KT 05/02 A2996 RMK A01 T00530017  RH  078%=      5-min Rain = 0
KCR2 191150Z 10003KT 05/02 A2996 RMK A01 T00530017  RH  078%=      5-min Rain = 0
KCR2 191151Z 10003KT 05/02 A2996 RMK A01 T00530018  RH  078%=      5-min Rain = 0
KCR2 191152Z 10003KT 05/02 A2996 RMK A01 T00530018  RH  078%=      5-min Rain = 0
KCR2 191153Z 10003KT 05/02 A2996 RMK A01 T00530018  RH  078%=      5-min Rain = 0
KCR2 191154Z 11003KT 05/02 A2996 RMK A01 T00520018  RH  078%=      5-min Rain = 0
KCR2 191155Z 10003KT 05/02 A2996 RMK A01 T00520018  RH  078%=      5-min Rain = 0
KCR2 191156Z 09003KT 05/02 A2996 RMK A01 T00530018  RH  078%=      5-min Rain = 0
KCR2 191157Z 09003KT 05/02 A2996 RMK A01 T00530018  RH  078%=      5-min Rain = 0
KCR2 191158Z 09003KT 05/02 A2996 RMK A01 T00530018  RH  078%=      5-min Rain = 0
KCR2 191159Z 09003KT 05/02 A2996 RMK A01 T00530018  RH  078%=      5-min Rain = 0
KCR2 191200Z 09004KT 05/02 A2996 RMK A01 T00530018  RH  078%=      5-min Rain = 0
KCR2 191201Z 09004KT 05/02 A2996 RMK A01 T00530018  RH  078%=      5-min Rain = 0
KCR2 191202Z 10004KT 05/02 A2996 RMK A01 T00530017  RH  078%=      5-min Rain = 0
KCR2 191203Z 10004KT 05/02 A2996 RMK A01 T00520017  RH  078%=      5-min Rain = 0
KCR2 191204Z 10005KT 05/02 A2996 RMK A01 T00520018  RH  079%=      5-min Rain = 0
KCR2 191205Z 10004KT 05/02 A2996 RMK A01 T00520018  RH  079%=      5-min Rain = 0
KCR2 191206Z 10004KT 05/02 A2996 RMK A01 T00520018  RH  078%=      5-min Rain = 0
KCR2 191207Z 10004KT 05/02 A2997 RMK A01 T00520018  RH  078%=      5-min Rain = 0
KCR2 191208Z 10004KT 05/02 A2997 RMK A01 T00520018  RH  079%=      5-min Rain = 0
KCR2 191209Z 11004KT 05/02 A2997 RMK A01 T00510017  RH  079%=      5-min Rain = 0
KCR2 191210Z 10004KT 05/02 A2997 RMK A01 T00510017  RH  079%=      5-min Rain = 0
KCR2 191211Z 09004KT 05/02 A2997 RMK A01 T00510018  RH  079%=      5-min Rain = 0
KCR2 191212Z 10004KT 05/02 A2997 RMK A01 T00510017  RH  079%=      5-min Rain = 0
KCR2 191213Z 09004KT 05/02 A2997 RMK A01 T00500017  RH  079%=      5-min Rain = 0
KCR2 191214Z 10004KT 05/02 A2997 RMK A01 T00500018  RH  080%=      5-min Rain = 0
KCR2 191215Z 11003KT 05/02 A2997 RMK A01 T00500017  RH  079%=      5-min Rain = 0
KCR2 191216Z 12004KT 05/02 A2997 RMK A01 T00500017  RH  079%=      5-min Rain = 0
KCR2 191217Z 12004KT 05/02 A2997 RMK A01 T00500018  RH  080%=      5-min Rain = 0
KCR2 191218Z 12004KT 05/02 A2997 RMK A01 T00500018  RH  080%=      5-min Rain = 0
KCR2 191219Z 12003KT 05/02 A2997 RMK A01 T00500018  RH  080%=      5-min Rain = 0
KCR2 191220Z 12002KT 05/02 A2997 RMK A01 T00500016  RH  079%=      5-min Rain = 0
KCR2 191221Z 11002KT 05/02 A2997 RMK A01 T00500017  RH  079%=      5-min Rain = 0
KCR2 191222Z 11002KT 05/02 A2997 RMK A01 T00500018  RH  080%=      5-min Rain = 0
KCR2 191223Z 11003KT 05/02 A2997 RMK A01 T00500018  RH  080%=      5-min Rain = 0
KCR2 191224Z 12003KT 05/02 A2997 RMK A01 T00510019  RH  080%=      5-min Rain = 0
KCR2 191225Z 10002KT 05/02 A2997 RMK A01 T00510016  RH  078%=      5-min Rain = 0
KCR2 191226Z 12003KT 05/02 A2997 RMK A01 T00500017  RH  079%=      5-min Rain = 0
KCR2 191227Z 12003KT 05/02 A2997 RMK A01 T00510020  RH  080%=      5-min Rain = 0
KCR2 191228Z 13002KT 05/02 A2997 RMK A01 T00520019  RH  079%=      5-min Rain = 0
KCR2 191229Z 13003KT 05/02 A2997 RMK A01 T00520018  RH  079%=      5-min Rain = 0
KCR2 191230Z 12003KT 05/02 A2997 RMK A01 T00520018  RH  079%=      5-min Rain = 0
KCR2 191231Z 12003KT 05/02 A2997 RMK A01 T00520019  RH  079%=      5-min Rain = 0
KCR2 191232Z 11003KT 05/02 A2997 RMK A01 T00520018  RH  079%=      5-min Rain = 0
KCR2 191233Z 10003KT 05/02 A2997 RMK A01 T00520017  RH  078%=      5-min Rain = 0
KCR2 191234Z 09003KT 05/02 A2997 RMK A01 T00520017  RH  078%=      5-min Rain = 0
KCR2 191235Z 11003KT 05/02 A2997 RMK A01 T00510017  RH  079%=      5-min Rain = 0
KCR2 191236Z 12003KT 05/02 A2997 RMK A01 T00510019  RH  080%=      5-min Rain = 0
KCR2 191237Z 12003KT 05/02 A2997 RMK A01 T00520021  RH  080%=      5-min Rain = 0
KCR2 191238Z 11003KT 05/02 A2997 RMK A01 T00530020  RH  079%=      5-min Rain = 0
KCR2 191239Z 12003KT 05/02 A2997 RMK A01 T00530019  RH  079%=      5-min Rain = 0
KCR2 191240Z 12003KT 05/02 A2997 RMK A01 T00530019  RH  079%=      5-min Rain = 0
KCR2 191241Z 10003KT 05/02 A2997 RMK A01 T00530019  RH  079%=      5-min Rain = 0
KCR2 191242Z 10004KT 05/02 A2997 RMK A01 T00530020  RH  079%=      5-min Rain = 0
KCR2 191243Z 09003KT 05/02 A2997 RMK A01 T00520018  RH  079%=      5-min Rain = 0
KCR2 191244Z 10003KT 05/02 A2997 RMK A01 T00510018  RH  079%=      5-min Rain = 0
KCR2 191245Z 11003KT 05/02 A2997 RMK A01 T00510018  RH  079%=      5-min Rain = 0
KCR2 191246Z 12002KT 05/02 A2997 RMK A01 T00510018  RH  079%=      5-min Rain = 0
KCR2 191247Z 12002KT 05/02 A2997 RMK A01 T00500018  RH  079%=      5-min Rain = 0
KCR2 191248Z 11002KT 05/02 A2997 RMK A01 T00500017  RH  080%=      5-min Rain = 0
KCR2 191249Z 08004KT 05/02 A2997 RMK A01 T00490017  RH  080%=      5-min Rain = 0
KCR2 191250Z 08005KT 05/02 A2998 RMK A01 T00490016  RH  080%=      5-min Rain = 0
KCR2 191251Z 08005KT 05/02 A2998 RMK A01 T00480016  RH  080%=      5-min Rain = 0
KCR2 191252Z 09005KT 05/02 A2998 RMK A01 T00470017  RH  081%=      5-min Rain = 0
KCR2 191253Z 09005KT 05/02 A2998 RMK A01 T00470017  RH  081%=      5-min Rain = 0
KCR2 191254Z 09005KT 05/02 A2998 RMK A01 T00470017  RH  081%=      5-min Rain = 0
KCR2 191255Z 09005KT 05/02 A2998 RMK A01 T00470017  RH  081%=      5-min Rain = 0
KCR2 191256Z 09004KT 05/02 A2998 RMK A01 T00470019  RH  082%=      5-min Rain = 0
KCR2 191257Z 09004KT 05/02 A2998 RMK A01 T00480018  RH  081%=      5-min Rain = 0
KCR2 191258Z 10003KT 05/02 A2998 RMK A01 T00480019  RH  081%=      5-min Rain = 0
KCR2 191259Z 10003KT 05/02 A2998 RMK A01 T00490020  RH  082%=      5-min Rain = 0
KCR2 191300Z 10003KT 05/02 A2998 RMK A01 T00510022  RH  082%=      5-min Rain = 0
KCR2 191301Z 09003KT 05/02 A2998 RMK A01 T00520022  RH  081%=      5-min Rain = 0
KCR2 191302Z 11004KT 05/02 A2998 RMK A01 T00530022  RH  080%=      5-min Rain = 0
KCR2 191303Z 11004KT 05/02 A2998 RMK A01 T00530021  RH  079%=      5-min Rain = 0
KCR2 191304Z 11004KT 05/02 A2998 RMK A01 T00530021  RH  079%=      5-min Rain = 0
KCR2 191305Z 12004KT 05/02 A2998 RMK A01 T00530020  RH  080%=      5-min Rain = 0
KCR2 191306Z 12004KT 05/02 A2998 RMK A01 T00530020  RH  079%=      5-min Rain = 0
KCR2 191307Z 11003KT 05/02 A2998 RMK A01 T00520019  RH  079%=      5-min Rain = 0
KCR2 191308Z 11003KT 05/02 A2998 RMK A01 T00510018  RH  079%=      5-min Rain = 0
KCR2 191309Z 11003KT 05/02 A2998 RMK A01 T00510019  RH  080%=      5-min Rain = 0
KCR2 191310Z 10003KT 05/02 A2998 RMK A01 T00500018  RH  080%=      5-min Rain = 0
KCR2 191311Z 10003KT 05/02 A2998 RMK A01 T00490017  RH  080%=      5-min Rain = 0
KCR2 191312Z 08004KT 05/02 A2998 RMK A01 T00480017  RH  080%=      5-min Rain = 0
KCR2 191313Z 08004KT 05/02 A2998 RMK A01 T00470017  RH  081%=      5-min Rain = 0
KCR2 191314Z 08004KT 05/02 A2998 RMK A01 T00470017  RH  081%=      5-min Rain = 0
KCR2 191315Z 08004KT 05/02 A2998 RMK A01 T00470018  RH  082%=      5-min Rain = 0
KCR2 191316Z 08004KT 05/02 A2998 RMK A01 T00470019  RH  082%=      5-min Rain = 0
KCR2 191317Z 09004KT 05/02 A2998 RMK A01 T00480020  RH  082%=      5-min Rain = 0
KCR2 191318Z 08003KT 05/02 A2998 RMK A01 T00490020  RH  082%=      5-min Rain = 0
KCR2 191319Z 09003KT 05/02 A2998 RMK A01 T00500021  RH  082%=      5-min Rain = 0
KCR2 191320Z 09003KT 05/02 A2998 RMK A01 T00500021  RH  081%=      5-min Rain = 0
KCR2 191321Z 09002KT 05/02 A2998 RMK A01 T00500021  RH  081%=      5-min Rain = 0
KCR2 191322Z 10002KT 05/02 A2998 RMK A01 T00510022  RH  082%=      5-min Rain = 0
KCR2 191323Z 09002KT 05/02 A2998 RMK A01 T00520022  RH  081%=      5-min Rain = 0
KCR2 191324Z 08002KT 05/02 A2998 RMK A01 T00520021  RH  080%=      5-min Rain = 0
KCR2 191325Z 07003KT 05/02 A2998 RMK A01 T00510020  RH  080%=      5-min Rain = 0
KCR2 191326Z 07003KT 05/02 A2998 RMK A01 T00510020  RH  081%=      5-min Rain = 0
KCR2 191327Z 07003KT 05/02 A2998 RMK A01 T00510022  RH  082%=      5-min Rain = 0
KCR2 191328Z 08003KT 05/02 A2998 RMK A01 T00510023  RH  082%=      5-min Rain = 0
KCR2 191329Z 08003KT 05/02 A2998 RMK A01 T00520023  RH  081%=      5-min Rain = 0
KCR2 191330Z 08003KT 05/02 A2998 RMK A01 T00520022  RH  081%=      5-min Rain = 0
KCR2 191331Z 08003KT 05/02 A2998 RMK A01 T00520021  RH  081%=      5-min Rain = 0
KCR2 191332Z 08003KT 05/02 A2998 RMK A01 T00520021  RH  080%=      5-min Rain = 0
KCR2 191333Z 08003KT 05/02 A2998 RMK A01 T00510020  RH  080%=      5-min Rain = 0
KCR2 191334Z 08004KT 05/02 A2998 RMK A01 T00510020  RH  081%=      5-min Rain = 0
KCR2 191335Z 08004KT 05/02 A2998 RMK A01 T00500020  RH  081%=      5-min Rain = 0
KCR2 191336Z 08004KT 05/02 A2998 RMK A01 T00510021  RH  081%=      5-min Rain = 0
KCR2 191337Z 08004KT 05/02 A2998 RMK A01 T00500020  RH  081%=      5-min Rain = 0
KCR2 191338Z 07004KT 05/02 A2998 RMK A01 T00500020  RH  081%=      5-min Rain = 0
KCR2 191339Z 07004KT 05/02 A2998 RMK A01 T00510020  RH  081%=      5-min Rain = 0
KCR2 191340Z 08004KT 05/02 A2998 RMK A01 T00500019  RH  081%=      5-min Rain = 0
KCR2 191341Z 09004KT 05/02 A2998 RMK A01 T00500019  RH  080%=      5-min Rain = 0
KCR2 191342Z 08004KT 05/02 A2998 RMK A01 T00490018  RH  080%=      5-min Rain = 0
KCR2 191343Z 07004KT 05/02 A2998 RMK A01 T00490018  RH  080%=      5-min Rain = 0
KCR2 191344Z 07004KT 05/02 A2998 RMK A01 T00480018  RH  081%=      5-min Rain = 0
KCR2 191345Z 07004KT 05/02 A2998 RMK A01 T00480018  RH  081%=      5-min Rain = 0
KCR2 191346Z 07004KT 05/02 A2998 RMK A01 T00470017  RH  081%=      5-min Rain = 0
KCR2 191347Z 07005KT 05/02 A2998 RMK A01 T00470017  RH  081%=      5-min Rain = 0
KCR2 191348Z 08004KT 05/02 A2998 RMK A01 T00460018  RH  082%=      5-min Rain = 0
KCR2 191349Z 08004KT 05/02 A2998 RMK A01 T00460018  RH  082%=      5-min Rain = 0
KCR2 191350Z 09003KT 05/02 A2998 RMK A01 T00460018  RH  082%=      5-min Rain = 0
KCR2 191351Z 09003KT 05/02 A2998 RMK A01 T00460018  RH  082%=      5-min Rain = 0
KCR2 191352Z 09002KT 05/02 A2998 RMK A01 T00460018  RH  082%=      5-min Rain = 0
KCR2 191353Z 10002KT 05/02 A2998 RMK A01 T00470019  RH  082%=      5-min Rain = 0
KCR2 191354Z 11002KT 05/02 A2998 RMK A01 T00480019  RH  081%=      5-min Rain = 0
KCR2 191355Z 11002KT 05/02 A2998 RMK A01 T00480018  RH  081%=      5-min Rain = 0
KCR2 191356Z 10002KT 05/02 A2998 RMK A01 T00480018  RH  081%=      5-min Rain = 0
KCR2 191357Z 09003KT 05/02 A2998 RMK A01 T00490018  RH  080%=      5-min Rain = 0
KCR2 191358Z 08003KT 05/02 A2998 RMK A01 T00490017  RH  080%=      5-min Rain = 0
KCR2 191359Z 09003KT 05/02 A2998 RMK A01 T00510019  RH  080%=      5-min Rain = 0
KCR2 191400Z 09003KT 05/02 A2998 RMK A01 T00520020  RH  080%=      5-min Rain = 0
KCR2 191401Z 08003KT 05/02 A2998 RMK A01 T00540022  RH  080%=      5-min Rain = 0
KCR2 191402Z 08003KT 06/02 A2998 RMK A01 T00560023  RH  079%=      5-min Rain = 0
KCR2 191403Z 08003KT 06/02 A2998 RMK A01 T00570023  RH  079%=      5-min Rain = 0
KCR2 191404Z 08004KT 06/02 A2998 RMK A01 T00570022  RH  078%=      5-min Rain = 0
KCR2 191405Z 08004KT 06/02 A2998 RMK A01 T00570022  RH  078%=      5-min Rain = 0
KCR2 191406Z 08003KT 06/02 A2998 RMK A01 T00570023  RH  078%=      5-min Rain = 0
KCR2 191407Z 07003KT 06/02 A2998 RMK A01 T00580024  RH  078%=      5-min Rain = 0
KCR2 191408Z 07003KT 06/03 A2998 RMK A01 T00590025  RH  078%=      5-min Rain = 0
KCR2 191409Z 06002KT 06/03 A2998 RMK A01 T00600025  RH  078%=      5-min Rain = 0
KCR2 191410Z 06002KT 06/03 A2998 RMK A01 T00610026  RH  079%=      5-min Rain = 0
KCR2 191411Z 07002KT 06/03 A2998 RMK A01 T00610027  RH  079%=      5-min Rain = 0
KCR2 191412Z 07002KT 06/03 A2998 RMK A01 T00620028  RH  079%=      5-min Rain = 0
KCR2 191413Z 07001KT 06/03 A2998 RMK A01 T00630028  RH  078%=      5-min Rain = 0
KCR2 191414Z 07002KT 06/03 A2998 RMK A01 T00640029  RH  078%=      5-min Rain = 0
KCR2 191415Z 06002KT 07/03 A2998 RMK A01 T00650029  RH  077%=      5-min Rain = 0
KCR2 191416Z 05002KT 07/03 A2999 RMK A01 T00660029  RH  077%=      5-min Rain = 0
KCR2 191417Z 06001KT 07/03 A2999 RMK A01 T00670030  RH  077%=      5-min Rain = 0
KCR2 191418Z 07001KT 07/03 A2999 RMK A01 T00690030  RH  077%=      5-min Rain = 0
KCR2 191419Z 06001KT 07/03 A2999 RMK A01 T00700030  RH  076%=      5-min Rain = 0
KCR2 191420Z 05001KT 07/03 A2999 RMK A01 T00710031  RH  076%=      5-min Rain = 0
KCR2 191421Z 00000KT 07/03 A2999 RMK A01 T00720032  RH  075%=      5-min Rain = 0
KCR2 191422Z 05000KT 07/03 A2999 RMK A01 T00730031  RH  075%=      5-min Rain = 0
KCR2 191423Z 06000KT 07/03 A2999 RMK A01 T00740031  RH  074%=      5-min Rain = 0
KCR2 191424Z 05001KT 08/03 A2999 RMK A01 T00750032  RH  074%=      5-min Rain = 0
KCR2 191425Z 05001KT 08/03 A2999 RMK A01 T00770033  RH  074%=      5-min Rain = 0
KCR2 191426Z 04001KT 08/03 A2999 RMK A01 T00780034  RH  074%=      5-min Rain = 0
KCR2 191427Z 03001KT 08/04 A2999 RMK A01 T00800035  RH  073%=      5-min Rain = 0
KCR2 191428Z 04001KT 08/04 A2999 RMK A01 T00810035  RH  073%=      5-min Rain = 0
KCR2 191429Z 01001KT 08/04 A2999 RMK A01 T00830035  RH  072%=      5-min Rain = 0
KCR2 191430Z 36000KT 08/04 A2999 RMK A01 T00840036  RH  072%=      5-min Rain = 0
KCR2 191431Z 35001KT 08/04 A2999 RMK A01 T00840035  RH  071%=      5-min Rain = 0
KCR2 191432Z 35001KT 09/04 A2999 RMK A01 T00850035  RH  071%=      5-min Rain = 0
KCR2 191433Z 35001KT 09/04 A2999 RMK A01 T00860036  RH  071%=      5-min Rain = 0
KCR2 191434Z 01002KT 09/04 A2999 RMK A01 T00880038  RH  071%=      5-min Rain = 0
KCR2 191435Z 04002KT 09/04 A2999 RMK A01 T00890038  RH  070%=      5-min Rain = 0
KCR2 191436Z 04001KT 09/04 A2999 RMK A01 T00900037  RH  069%=      5-min Rain = 0
KCR2 191437Z 03001KT 09/04 A2999 RMK A01 T00910038  RH  069%=      5-min Rain = 0
KCR2 191438Z 05001KT 09/04 A2999 RMK A01 T00920039  RH  069%=      5-min Rain = 0
KCR2 191439Z 00000KT 09/04 A2999 RMK A01 T00940039  RH  069%=      5-min Rain = 0
KCR2 191440Z 00000KT 10/04 A2999 RMK A01 T00950040  RH  068%=      5-min Rain = 0
KCR2 191441Z 00000KT 10/04 A2999 RMK A01 T00970040  RH  068%=      5-min Rain = 0
KCR2 191442Z 02001KT 10/04 A2999 RMK A01 T00980041  RH  067%=      5-min Rain = 0
KCR2 191443Z 03001KT 10/04 A2999 RMK A01 T01000041  RH  067%=      5-min Rain = 0
KCR2 191444Z 03001KT 10/04 A2999 RMK A01 T01000040  RH  066%=      5-min Rain = 0
KCR2 191445Z 02001KT 10/04 A2999 RMK A01 T01020042  RH  066%=      5-min Rain = 0
KCR2 191446Z 02002KT 10/04 A2999 RMK A01 T01030041  RH  065%=      5-min Rain = 0
KCR2 191447Z 03001KT 10/04 A2999 RMK A01 T01040041  RH  065%=      5-min Rain = 0
KCR2 191448Z 03000KT 11/04 A2999 RMK A01 T01050041  RH  065%=      5-min Rain = 0
KCR2 191449Z 02001KT 11/04 A2999 RMK A01 T01060041  RH  064%=      5-min Rain = 0
KCR2 191450Z 34000KT 11/04 A2999 RMK A01 T01070042  RH  064%=      5-min Rain = 0
KCR2 191451Z 00000KT 11/04 A2999 RMK A01 T01090042  RH  063%=      5-min Rain = 0
KCR2 191452Z 00000KT 11/04 A2999 RMK A01 T01100042  RH  063%=      5-min Rain = 0
KCR2 191453Z 00000KT 11/04 A2999 RMK A01 T01110043  RH  063%=      5-min Rain = 0
KCR2 191454Z 00000KT 11/04 A2999 RMK A01 T01120043  RH  062%=      5-min Rain = 0
KCR2 191455Z 00000KT 11/04 A2999 RMK A01 T01140044  RH  062%=      5-min Rain = 0
KCR2 191456Z 00000KT 12/05 A2999 RMK A01 T01170046  RH  062%=      5-min Rain = 0
KCR2 191457Z 06000KT 12/05 A2999 RMK A01 T01200046  RH  061%=      5-min Rain = 0
KCR2 191458Z 04001KT 12/05 A2999 RMK A01 T01210045  RH  060%=      5-min Rain = 0
KCR2 191459Z 06000KT 12/05 A2999 RMK A01 T01230045  RH  059%=      5-min Rain = 0
KCR2 191500Z 06000KT 12/04 A2999 RMK A01 T01230044  RH  059%=      5-min Rain = 0
KCR2 191501Z 02001KT 12/04 A2999 RMK A01 T01230044  RH  058%=      5-min Rain = 0
KCR2 191502Z 04000KT 12/04 A2999 RMK A01 T01230044  RH  058%=      5-min Rain = 0
KCR2 191503Z 04001KT 12/04 A2999 RMK A01 T01240044  RH  058%=      5-min Rain = 0
KCR2 191504Z 02001KT 12/04 A2999 RMK A01 T01240044  RH  058%=      5-min Rain = 0
KCR2 191505Z 06000KT 13/05 A2999 RMK A01 T01250045  RH  058%=      5-min Rain = 0
KCR2 191506Z 05001KT 13/05 A2999 RMK A01 T01260045  RH  058%=      5-min Rain = 0
KCR2 191507Z 04002KT 13/05 A2999 RMK A01 T01270046  RH  058%=      5-min Rain = 0
KCR2 191508Z 04002KT 13/05 A2999 RMK A01 T01270046  RH  058%=      5-min Rain = 0
KCR2 191509Z 03002KT 13/05 A2999 RMK A01 T01270046  RH  058%=      5-min Rain = 0
KCR2 191510Z 05001KT 13/05 A2999 RMK A01 T01270047  RH  058%=      5-min Rain = 0
KCR2 191511Z 04002KT 13/05 A2999 RMK A01 T01280048  RH  058%=      5-min Rain = 0
KCR2 191512Z 04002KT 13/05 A2999 RMK A01 T01290048  RH  058%=      5-min Rain = 0
KCR2 191513Z 03001KT 13/05 A2999 RMK A01 T01290049  RH  058%=      5-min Rain = 0
KCR2 191514Z 03002KT 13/05 A2999 RMK A01 T01290049  RH  058%=      5-min Rain = 0
KCR2 191515Z 03002KT 13/05 A2999 RMK A01 T01300048  RH  058%=      5-min Rain = 0
KCR2 191516Z 03002KT 13/05 A2999 RMK A01 T01300049  RH  058%=      5-min Rain = 0
KCR2 191517Z 04002KT 13/05 A2999 RMK A01 T01310049  RH  058%=      5-min Rain = 0
KCR2 191518Z 04002KT 13/05 A2999 RMK A01 T01310050  RH  058%=      5-min Rain = 0
KCR2 191519Z 04002KT 13/05 A2999 RMK A01 T01310050  RH  058%=      5-min Rain = 0
KCR2 191520Z 05002KT 13/05 A2999 RMK A01 T01310050  RH  058%=      5-min Rain = 0
KCR2 191521Z 06002KT 13/05 A2999 RMK A01 T01320050  RH  058%=      5-min Rain = 0
KCR2 191522Z 05002KT 13/05 A2999 RMK A01 T01320050  RH  058%=      5-min Rain = 0
KCR2 191523Z 05001KT 13/05 A2999 RMK A01 T01310050  RH  058%=      5-min Rain = 0
KCR2 191524Z 06001KT 13/05 A2999 RMK A01 T01320051  RH  058%=      5-min Rain = 0
KCR2 191525Z 07001KT 13/05 A2999 RMK A01 T01320051  RH  058%=      5-min Rain = 0
KCR2 191526Z 08001KT 13/05 A2999 RMK A01 T01320051  RH  058%=      5-min Rain = 0
KCR2 191527Z 08001KT 13/05 A2999 RMK A01 T01330050  RH  057%=      5-min Rain = 0
KCR2 191528Z 09001KT 13/05 A2999 RMK A01 T01340051  RH  057%=      5-min Rain = 0
KCR2 191529Z 08002KT 14/05 A2999 RMK A01 T01350052  RH  057%=      5-min Rain = 0
KCR2 191530Z 08002KT 14/05 A2999 RMK A01 T01360052  RH  057%=      5-min Rain = 0
KCR2 191531Z 07002KT 14/05 A2999 RMK A01 T01370052  RH  056%=      5-min Rain = 0
KCR2 191532Z 08001KT 14/05 A2999 RMK A01 T01380052  RH  056%=      5-min Rain = 0
KCR2 191533Z 10002KT 14/05 A2999 RMK A01 T01390053  RH  056%=      5-min Rain = 0
KCR2 191534Z 09002KT 14/05 A2999 RMK A01 T01410053  RH  056%=      5-min Rain = 0
KCR2 191535Z 11001KT 14/05 A2999 RMK A01 T01420054  RH  055%=      5-min Rain = 0
KCR2 191536Z 13002KT 14/05 A2999 RMK A01 T01430053  RH  054%=      5-min Rain = 0
KCR2 191537Z 09001KT 15/05 A2999 RMK A01 T01450054  RH  054%=      5-min Rain = 0
KCR2 191538Z 11001KT 15/05 A2999 RMK A01 T01470054  RH  054%=      5-min Rain = 0
KCR2 191539Z 11001KT 15/05 A2999 RMK A01 T01480053  RH  053%=      5-min Rain = 0
KCR2 191540Z 12001KT 15/05 A2999 RMK A01 T01490054  RH  053%=      5-min Rain = 0
KCR2 191541Z 12001KT 15/06 A2999 RMK A01 T01510055  RH  052%=      5-min Rain = 0
KCR2 191542Z 12002KT 15/06 A2999 RMK A01 T01530055  RH  052%=      5-min Rain = 0
KCR2 191543Z 13002KT 16/06 A2999 RMK A01 T01550055  RH  051%=      5-min Rain = 0
KCR2 191544Z 14003KT 16/06 A2999 RMK A01 T01560056  RH  051%=      5-min Rain = 0
KCR2 191545Z 16003KT 16/06 A2999 RMK A01 T01570056  RH  051%=      5-min Rain = 0
KCR2 191546Z 15003KT 16/06 A2999 RMK A01 T01580058  RH  051%=      5-min Rain = 0
KCR2 191547Z 15004KT 16/06 A2999 RMK A01 T01590057  RH  051%=      5-min Rain = 0
KCR2 191548Z 15004KT 16/06 A2999 RMK A01 T01600057  RH  050%=      5-min Rain = 0
KCR2 191549Z 14003KT 16/06 A2999 RMK A01 T01610057  RH  050%=      5-min Rain = 0
KCR2 191550Z 16004KT 16/06 A2999 RMK A01 T01620059  RH  050%=      5-min Rain = 0
KCR2 191551Z 16004KT 16/06 A2999 RMK A01 T01640060  RH  050%=      5-min Rain = 0
KCR2 191552Z 16004KT 17/06 A2999 RMK A01 T01650060  RH  050%=      5-min Rain = 0
KCR2 191553Z 15005KT 17/06 A2999 RMK A01 T01670060  RH  049%=      5-min Rain = 0
KCR2 191554Z 15005KT 17/06 A2999 RMK A01 T01660060  RH  049%=      5-min Rain = 0
KCR2 191555Z 15004KT 17/06 A2999 RMK A01 T01680060  RH  049%=      5-min Rain = 0
KCR2 191556Z 16004KT 17/06 A2999 RMK A01 T01680060  RH  049%=      5-min Rain = 0
KCR2 191557Z 16004KT 17/06 A2999 RMK A01 T01700060  RH  048%=      5-min Rain = 0
KCR2 191558Z 15004KT 17/06 A2999 RMK A01 T01700060  RH  048%=      5-min Rain = 0
KCR2 191559Z 15004KT 17/06 A2999 RMK A01 T01700060  RH  048%=      5-min Rain = 0
KCR2 191600Z 16004KT 17/06 A2999 RMK A01 T01710060  RH  048%=      5-min Rain = 0
KCR2 191601Z 15004KT 17/06 A2999 RMK A01 T01710061  RH  048%=      5-min Rain = 0
KCR2 191602Z 16003KT 17/06 A2999 RMK A01 T01720061  RH  048%=      5-min Rain = 0
KCR2 191603Z 15003KT 17/06 A2999 RMK A01 T01730060  RH  048%=      5-min Rain = 0
KCR2 191604Z 16003KT 17/06 A2999 RMK A01 T01740063  RH  048%=      5-min Rain = 0
KCR2 191605Z 16004KT 18/06 A2999 RMK A01 T01760062  RH  047%=      5-min Rain = 0
KCR2 191606Z 15004KT 18/06 A2999 RMK A01 T01770061  RH  047%=      5-min Rain = 0
KCR2 191607Z 15003KT 18/06 A2999 RMK A01 T01770063  RH  047%=      5-min Rain = 0
KCR2 191608Z 16004KT 18/06 A2999 RMK A01 T01780062  RH  046%=      5-min Rain = 0
KCR2 191609Z 16003KT 18/06 A2999 RMK A01 T01790061  RH  046%=      5-min Rain = 0
KCR2 191610Z 15004KT 18/06 A2999 RMK A01 T01800063  RH  046%=      5-min Rain = 0
KCR2 191611Z 15004KT 18/06 A2999 RMK A01 T01820063  RH  046%=      5-min Rain = 0
KCR2 191612Z 15003KT 18/06 A2999 RMK A01 T01830063  RH  045%=      5-min Rain = 0
KCR2 191613Z 16004KT 18/06 A2999 RMK A01 T01830062  RH  045%=      5-min Rain = 0
KCR2 191614Z 15003KT 18/06 A2999 RMK A01 T01840062  RH  045%=      5-min Rain = 0
KCR2 191615Z 15004KT 19/06 A2999 RMK A01 T01850063  RH  045%=      5-min Rain = 0
KCR2 191616Z 15003KT 19/06 A2999 RMK A01 T01860061  RH  044%=      5-min Rain = 0
KCR2 191617Z 15003KT 19/06 A2999 RMK A01 T01870062  RH  044%=      5-min Rain = 0
KCR2 191618Z 16004KT 19/06 A2999 RMK A01 T01880062  RH  044%=      5-min Rain = 0
KCR2 191619Z 16003KT 19/06 A2999 RMK A01 T01890062  RH  043%=      5-min Rain = 0
KCR2 191620Z 15003KT 19/06 A2999 RMK A01 T01890062  RH  043%=      5-min Rain = 0
KCR2 191621Z 14003KT 19/06 A2999 RMK A01 T01900063  RH  043%=      5-min Rain = 0
KCR2 191622Z 16003KT 19/06 A2999 RMK A01 T01910063  RH  043%=      5-min Rain = 0
KCR2 191623Z 15003KT 19/06 A2999 RMK A01 T01930064  RH  043%=      5-min Rain = 0
KCR2 191624Z 15002KT 20/06 A2999 RMK A01 T01950064  RH  042%=      5-min Rain = 0
KCR2 191625Z 11001KT 20/06 A2999 RMK A01 T01960063  RH  042%=      5-min Rain = 0
KCR2 191626Z 19001KT 20/06 A2999 RMK A01 T01980063  RH  041%=      5-min Rain = 0
KCR2 191627Z 17001KT 20/06 A2999 RMK A01 T01990060  RH  040%=      5-min Rain = 0
KCR2 191628Z 14001KT 20/06 A2999 RMK A01 T02010061  RH  040%=      5-min Rain = 0
KCR2 191629Z 15002KT 20/06 A2999 RMK A01 T02020060  RH  039%=      5-min Rain = 0
KCR2 191630Z 18002KT 20/06 A2999 RMK A01 T02030059  RH  039%=      5-min Rain = 0
KCR2 191631Z 17002KT 20/06 A2999 RMK A01 T02040062  RH  039%=      5-min Rain = 0
KCR2 191632Z 17003KT 21/06 A2999 RMK A01 T02050055  RH  038%=      5-min Rain = 0
KCR2 191633Z 19004KT 21/05 A2998 RMK A01 T02060051  RH  036%=      5-min Rain = 0
KCR2 191634Z 18005KT 21/05 A2998 RMK A01 T02070052  RH  036%=      5-min Rain = 0
KCR2 191635Z 19004KT 21/05 A2998 RMK A01 T02080053  RH  036%=      5-min Rain = 0
KCR2 191636Z 19004KT 21/05 A2998 RMK A01 T02080052  RH  036%=      5-min Rain = 0
KCR2 191637Z 20005KT 21/05 A2998 RMK A01 T02090052  RH  036%=      5-min Rain = 0
KCR2 191638Z 20003KT 21/05 A2998 RMK A01 T02090051  RH  035%=      5-min Rain = 0
KCR2 191639Z 19004KT 21/05 A2998 RMK A01 T02100050  RH  035%=      5-min Rain = 0
KCR2 191640Z 18005KT 21/05 A2998 RMK A01 T02100047  RH  034%=      5-min Rain = 0
KCR2 191641Z 17004KT 21/05 A2998 RMK A01 T02110047  RH  034%=      5-min Rain = 0
KCR2 191642Z 17004KT 21/05 A2998 RMK A01 T02110048  RH  034%=      5-min Rain = 0
KCR2 191643Z 18003KT 21/05 A2998 RMK A01 T02110049  RH  034%=      5-min Rain = 0
KCR2 191644Z 19002KT 21/05 A2998 RMK A01 T02110048  RH  034%=      5-min Rain = 0
KCR2 191645Z 18003KT 21/05 A2998 RMK A01 T02120049  RH  034%=      5-min Rain = 0
KCR2 191646Z 19004KT 21/05 A2998 RMK A01 T02120047  RH  034%=      5-min Rain = 0
KCR2 191647Z 19004KT 21/05 A2998 RMK A01 T02120048  RH  034%=      5-min Rain = 0
KCR2 191648Z 18003KT 21/05 A2998 RMK A01 T02120048  RH  034%=      5-min Rain = 0
KCR2 191649Z 17003KT 21/04 A2998 RMK A01 T02120044  RH  033%=      5-min Rain = 0
KCR2 191650Z 21005KT 21/04 A2998 RMK A01 T02130044  RH  033%=      5-min Rain = 0
KCR2 191651Z 22004KT 21/04 A2998 RMK A01 T02140044  RH  033%=      5-min Rain = 0
KCR2 191652Z 23002KT 22/04 A2998 RMK A01 T02150044  RH  033%=      5-min Rain = 0
KCR2 191653Z 18001KT 22/04 A2998 RMK A01 T02150044  RH  033%=      5-min Rain = 0
KCR2 191654Z 22003KT 22/05 A2998 RMK A01 T02160045  RH  033%=      5-min Rain = 0
KCR2 191655Z 24002KT 22/04 A2998 RMK A01 T02170043  RH  032%=      5-min Rain = 0
KCR2 191656Z 20001KT 22/04 A2998 RMK A01 T02170042  RH  032%=      5-min Rain = 0
KCR2 191657Z 16004KT 22/04 A2998 RMK A01 T02180041  RH  032%=      5-min Rain = 0
KCR2 191658Z 15003KT 22/04 A2997 RMK A01 T02190039  RH  031%=      5-min Rain = 0
KCR2 191659Z 19002KT 22/04 A2997 RMK A01 T02200038  RH  030%=      5-min Rain = 0
KCR2 191700Z 16004KT 22/04 A2997 RMK A01 T02210038  RH  030%=      5-min Rain = 0
KCR2 191701Z 16005KT 22/03 A2997 RMK A01 T02220032  RH  029%=      5-min Rain = 0
KCR2 191702Z 17004KT 22/03 A2997 RMK A01 T02230034  RH  029%=      5-min Rain = 0
KCR2 191703Z 18003KT 22/04 A2997 RMK A01 T02230035  RH  029%=      5-min Rain = 0
KCR2 191704Z 16003KT 22/04 A2997 RMK A01 T02230036  RH  029%=      5-min Rain = 0
KCR2 191705Z 15003KT 22/03 A2997 RMK A01 T02240030  RH  028%=      5-min Rain = 0
KCR2 191706Z 16006KT 23/03 A2997 RMK A01 T02250030  RH  028%=      5-min Rain = 0
KCR2 191707Z 16005KT 23/03 A2997 RMK A01 T02250030  RH  028%=      5-min Rain = 0
KCR2 191708Z 16004KT 23/03 A2997 RMK A01 T02260031  RH  028%=      5-min Rain = 0
KCR2 191709Z 18004KT 23/03 A2997 RMK A01 T02260032  RH  028%=      5-min Rain = 0
KCR2 191710Z 17003KT 23/03 A2997 RMK A01 T02270028  RH  027%=      5-min Rain = 0
KCR2 191711Z 19004KT 23/02 A2997 RMK A01 T02270023  RH  026%=      5-min Rain = 0
KCR2 191712Z 19005KT 23/03 A2997 RMK A01 T02270026  RH  027%=      5-min Rain = 0
KCR2 191713Z 19004KT 23/03 A2997 RMK A01 T02270027  RH  027%=      5-min Rain = 0
KCR2 191714Z 18004KT 23/03 A2997 RMK A01 T02270030  RH  027%=      5-min Rain = 0
KCR2 191715Z 18004KT 23/03 A2997 RMK A01 T02280028  RH  027%=      5-min Rain = 0
KCR2 191716Z 19005KT 23/02 A2997 RMK A01 T02280024  RH  026%=      5-min Rain = 0
KCR2 191717Z 19005KT 23/03 A2997 RMK A01 T02280027  RH  027%=      5-min Rain = 0
KCR2 191718Z 20005KT 23/02 A2996 RMK A01 T02280024  RH  026%=      5-min Rain = 0
KCR2 191719Z 16004KT 23/02 A2996 RMK A01 T02290024  RH  026%=      5-min Rain = 0
KCR2 191720Z 20006KT 23/02 A2996 RMK A01 T02300023  RH  026%=      5-min Rain = 0
KCR2 191721Z 19007KT 23/03 A2996 RMK A01 T02300025  RH  026%=      5-min Rain = 0
KCR2 191722Z 17006KT 23/02 A2996 RMK A01 T02300024  RH  026%=      5-min Rain = 0
KCR2 191723Z 17007KT 23/03 A2996 RMK A01 T02300030  RH  027%=      5-min Rain = 0
KCR2 191724Z 18006KT 23/03 A2996 RMK A01 T02300029  RH  027%=      5-min Rain = 0
KCR2 191725Z 17005KT 23/03 A2996 RMK A01 T02300028  RH  027%=      5-min Rain = 0
KCR2 191726Z 19006KT 23/03 A2996 RMK A01 T02310027  RH  026%=      5-min Rain = 0
KCR2 191727Z 18004KT 23/03 A2996 RMK A01 T02300028  RH  026%=      5-min Rain = 0
KCR2 191728Z 19005KT 23/03 A2996 RMK A01 T02290027  RH  027%=      5-min Rain = 0
KCR2 191729Z 18005KT 23/03 A2996 RMK A01 T02290026  RH  026%=      5-min Rain = 0
KCR2 191730Z 20005KT 23/03 A2996 RMK A01 T02290029  RH  027%=      5-min Rain = 0
KCR2 191731Z 20004KT 23/03 A2996 RMK A01 T02290030  RH  027%=      5-min Rain = 0
KCR2 191732Z 19004KT 23/03 A2996 RMK A01 T02300030  RH  027%=      5-min Rain = 0
KCR2 191733Z 18005KT 23/03 A2996 RMK A01 T02300028  RH  027%=      5-min Rain = 0
KCR2 191734Z 18006KT 23/02 A2996 RMK A01 T02310023  RH  026%=      5-min Rain = 0
KCR2 191735Z 17006KT 23/02 A2995 RMK A01 T02320022  RH  025%=      5-min Rain = 0
KCR2 191736Z 16005KT 23/02 A2995 RMK A01 T02330023  RH  025%=      5-min Rain = 0
KCR2 191737Z 15004KT 23/02 A2995 RMK A01 T02340016  RH  024%=      5-min Rain = 0
KCR2 191738Z 18005KT 23/02 A2995 RMK A01 T02340018  RH  024%=      5-min Rain = 0
KCR2 191739Z 18005KT 23/02 A2995 RMK A01 T02340018  RH  024%=      5-min Rain = 0
KCR2 191740Z 17005KT 23/02 A2995 RMK A01 T02330023  RH  025%=      5-min Rain = 0
KCR2 191741Z 18005KT 23/03 A2995 RMK A01 T02340025  RH  025%=      5-min Rain = 0
KCR2 191742Z 17006KT 24/03 A2995 RMK A01 T02350027  RH  026%=      5-min Rain = 0
KCR2 191743Z 17004KT 23/03 A2995 RMK A01 T02340025  RH  025%=      5-min Rain = 0
KCR2 191744Z 19006KT 23/02 A2995 RMK A01 T02330024  RH  025%=      5-min Rain = 0
KCR2 191745Z 20005KT 23/03 A2995 RMK A01 T02340027  RH  026%=      5-min Rain = 0
KCR2 191746Z 21006KT 23/02 A2995 RMK A01 T02340022  RH  025%=      5-min Rain = 0
KCR2 191747Z 20005KT 23/02 A2995 RMK A01 T02340020  RH  024%=      5-min Rain = 0
KCR2 191748Z 18004KT 24/02 A2995 RMK A01 T02360023  RH  025%=      5-min Rain = 0
KCR2 191749Z 20005KT 24/03 A2995 RMK A01 T02360025  RH  025%=      5-min Rain = 0
KCR2 191750Z 19005KT 24/03 A2995 RMK A01 T02360027  RH  025%=      5-min Rain = 0
KCR2 191751Z 19006KT 24/03 A2995 RMK A01 T02360027  RH  026%=      5-min Rain = 0
KCR2 191752Z 17004KT 24/03 A2995 RMK A01 T02360029  RH  026%=      5-min Rain = 0
KCR2 191753Z 14003KT 24/03 A2995 RMK A01 T02360028  RH  026%=      5-min Rain = 0
KCR2 191754Z 19003KT 24/03 A2995 RMK A01 T02350029  RH  026%=      5-min Rain = 0
KCR2 191755Z 23004KT 24/03 A2995 RMK A01 T02360026  RH  025%=      5-min Rain = 0
KCR2 191756Z 22004KT 24/03 A2995 RMK A01 T02360025  RH  025%=      5-min Rain = 0
KCR2 191757Z 22006KT 24/03 A2995 RMK A01 T02360029  RH  026%=      5-min Rain = 0
KCR2 191758Z 23005KT 24/03 A2995 RMK A01 T02390030  RH  026%=      5-min Rain = 0
KCR2 191759Z 23007KT 24/03 A2995 RMK A01 T02390029  RH  025%=      5-min Rain = 0
KCR2 191800Z 23005KT 24/03 A2995 RMK A01 T02380030  RH  026%=      5-min Rain = 0
KCR2 191801Z 23005KT 24/03 A2994 RMK A01 T02380027  RH  025%=      5-min Rain = 0
KCR2 191802Z 21006KT 24/03 A2994 RMK A01 T02370027  RH  025%=      5-min Rain = 0
KCR2 191803Z 22006KT 24/02 A2994 RMK A01 T02390024  RH  024%=      5-min Rain = 0
KCR2 191804Z 23007KT 24/03 A2994 RMK A01 T02400025  RH  025%=      5-min Rain = 0
KCR2 191805Z 22005KT 24/03 A2994 RMK A01 T02410029  RH  025%=      5-min Rain = 0
KCR2 191806Z 22007KT 24/03 A2994 RMK A01 T02410030  RH  025%=      5-min Rain = 0
KCR2 191807Z 23005KT 24/03 A2994 RMK A01 T02430028  RH  025%=      5-min Rain = 0
KCR2 191808Z 20005KT 24/03 A2994 RMK A01 T02430030  RH  025%=      5-min Rain = 0
KCR2 191809Z 20007KT 24/03 A2994 RMK A01 T02430033  RH  025%=      5-min Rain = 0
KCR2 191810Z 20006KT 24/03 A2994 RMK A01 T02440031  RH  025%=      5-min Rain = 0
KCR2 191811Z 22008KT 24/04 A2994 RMK A01 T02440039  RH  026%=      5-min Rain = 0
KCR2 191812Z 22009KT 24/04 A2994 RMK A01 T02420038  RH  026%=      5-min Rain = 0
KCR2 191813Z 21009KT 24/03 A2994 RMK A01 T02410032  RH  026%=      5-min Rain = 0
KCR2 191814Z 22009KT 24/04 A2994 RMK A01 T02410036  RH  026%=      5-min Rain = 0
KCR2 191815Z 23009KT 24/04 A2994 RMK A01 T02400037  RH  027%=      5-min Rain = 0
KCR2 191816Z 23008KT 24/04 A2994 RMK A01 T02400040  RH  027%=      5-min Rain = 0
KCR2 191817Z 23009KT 24/04 A2994 RMK A01 T02390038  RH  027%=      5-min Rain = 0
KCR2 191818Z 23010KT 24/04 A2994 RMK A01 T02390039  RH  027%=      5-min Rain = 0
KCR2 191819Z 22011KT 24/04 A2994 RMK A01 T02390038  RH  027%=      5-min Rain = 0
KCR2 191820Z 22011KT 24/04 A2994 RMK A01 T02390038  RH  027%=      5-min Rain = 0
KCR2 191821Z 21011KT 24/04 A2994 RMK A01 T02380038  RH  027%=      5-min Rain = 0
KCR2 191822Z 22007KT 24/04 A2993 RMK A01 T02370040  RH  028%=      5-min Rain = 0
KCR2 191823Z 23009KT 24/04 A2993 RMK A01 T02370041  RH  028%=      5-min Rain = 0
KCR2 191824Z 23011KT 24/04 A2993 RMK A01 T02380040  RH  028%=      5-min Rain = 0
KCR2 191825Z 24009KT 24/04 A2993 RMK A01 T02370041  RH  028%=      5-min Rain = 0
KCR2 191826Z 22010KT 24/04 A2993 RMK A01 T02360039  RH  028%=      5-min Rain = 0
KCR2 191827Z 21009KT 24/04 A2993 RMK A01 T02360042  RH  028%=      5-min Rain = 0
KCR2 191828Z 22010KT 24/04 A2993 RMK A01 T02370043  RH  028%=      5-min Rain = 0
KCR2 191829Z 21009KT 24/04 A2993 RMK A01 T02360044  RH  029%=      5-min Rain = 0
KCR2 191830Z 22008KT 24/04 A2993 RMK A01 T02360044  RH  029%=      5-min Rain = 0
KCR2 191831Z 20010KT 24/05 A2993 RMK A01 T02350046  RH  029%=      5-min Rain = 0
KCR2 191832Z 20008KT 24/05 A2993 RMK A01 T02350045  RH  029%=      5-min Rain = 0
KCR2 191833Z 20010KT 23/05 A2993 RMK A01 T02340046  RH  030%=      5-min Rain = 0
KCR2 191834Z 21009KT 24/05 A2993 RMK A01 T02350050  RH  030%=      5-min Rain = 0
KCR2 191835Z 21010KT 23/05 A2993 RMK A01 T02340048  RH  030%=      5-min Rain = 0
KCR2 191836Z 22008KT 23/04 A2993 RMK A01 T02330044  RH  029%=      5-min Rain = 0
KCR2 191837Z 24009KT 23/04 A2993 RMK A01 T02330041  RH  029%=      5-min Rain = 0
KCR2 191838Z 24008KT 23/04 A2992 RMK A01 T02330043  RH  029%=      5-min Rain = 0
KCR2 191839Z 23007KT 23/04 A2992 RMK A01 T02330040  RH  029%=      5-min Rain = 0
KCR2 191840Z 22007G12KT 23/04 A2992 RMK A01 T02320041  RH  029%=      5-min Rain = 0
KCR2 191841Z 20008KT 24/05 A2992 RMK A01 T02350046  RH  029%=      5-min Rain = 0
KCR2 191842Z 22008KT 24/05 A2992 RMK A01 T02360049  RH  030%=      5-min Rain = 0
KCR2 191843Z 24008KT 24/05 A2992 RMK A01 T02380049  RH  030%=      5-min Rain = 0
KCR2 191844Z 23008KT 24/05 A2992 RMK A01 T02380049  RH  029%=      5-min Rain = 0
KCR2 191845Z 22009KT 24/05 A2992 RMK A01 T02390049  RH  029%=      5-min Rain = 0
KCR2 191846Z 21010KT 24/05 A2992 RMK A01 T02400047  RH  029%=      5-min Rain = 0
KCR2 191847Z 21008KT 24/04 A2992 RMK A01 T02380044  RH  028%=      5-min Rain = 0
KCR2 191848Z 22008KT 24/05 A2992 RMK A01 T02360045  RH  029%=      5-min Rain = 0
KCR2 191849Z 22007KT 24/05 A2992 RMK A01 T02350050  RH  030%=      5-min Rain = 0
KCR2 191850Z 22005KT 23/05 A2992 RMK A01 T02340050  RH  030%=      5-min Rain = 0
KCR2 191851Z 23008KT 23/05 A2992 RMK A01 T02340049  RH  030%=      5-min Rain = 0
KCR2 191852Z 22007KT 23/05 A2992 RMK A01 T02330047  RH  030%=      5-min Rain = 0
KCR2 191853Z 22007KT 24/05 A2992 RMK A01 T02350047  RH  030%=      5-min Rain = 0
KCR2 191854Z 22007KT 24/05 A2992 RMK A01 T02370046  RH  029%=      5-min Rain = 0
KCR2 191855Z 21008KT 24/05 A2991 RMK A01 T02380046  RH  029%=      5-min Rain = 0
KCR2 191856Z 22006KT 24/05 A2991 RMK A01 T02360047  RH  029%=      5-min Rain = 0
KCR2 191857Z 23008KT 24/05 A2991 RMK A01 T02370049  RH  030%=      5-min Rain = 0
KCR2 191858Z 23009KT 24/05 A2991 RMK A01 T02380047  RH  029%=      5-min Rain = 0
KCR2 191859Z 22008KT 24/05 A2991 RMK A01 T02380046  RH  029%=      5-min Rain = 0
KCR2 191900Z 21007KT 24/05 A2991 RMK A01 T02370048  RH  029%=      5-min Rain = 0
KCR2 191901Z 21010KT 24/05 A2991 RMK A01 T02370047  RH  029%=      5-min Rain = 0
KCR2 191902Z 21011KT 24/05 A2991 RMK A01 T02390046  RH  028%=      5-min Rain = 0
KCR2 191903Z 21010KT 24/04 A2991 RMK A01 T02400042  RH  028%=      5-min Rain = 0
KCR2 191904Z 19007KT 24/04 A2991 RMK A01 T02380044  RH  028%=      5-min Rain = 0
KCR2 191905Z 22007KT 24/05 A2991 RMK A01 T02350046  RH  029%=      5-min Rain = 0
KCR2 191906Z 23010KT 24/04 A2991 RMK A01 T02350044  RH  029%=      5-min Rain = 0
KCR2 191907Z 23007KT 24/04 A2991 RMK A01 T02360044  RH  029%=      5-min Rain = 0
KCR2 191908Z 23008KT 24/04 A2991 RMK A01 T02360044  RH  029%=      5-min Rain = 0
KCR2 191909Z 24010KT 24/04 A2991 RMK A01 T02380040  RH  028%=      5-min Rain = 0
KCR2 191910Z 23010KT 24/04 A2991 RMK A01 T02380039  RH  027%=      5-min Rain = 0
KCR2 191911Z 22009KT 24/05 A2991 RMK A01 T02390045  RH  028%=      5-min Rain = 0
KCR2 191912Z 22007KT 24/04 A2991 RMK A01 T02390044  RH  028%=      5-min Rain = 0
KCR2 191913Z 21006KT 24/04 A2991 RMK A01 T02370044  RH  028%=      5-min Rain = 0
KCR2 191914Z 21008KT 24/04 A299 RMK A01 T02390043  RH  028%=      5-min Rain = 0
KCR2 191915Z 21009KT 24/04 A299 RMK A01 T02400035  RH  026%=      5-min Rain = 0
KCR2 191916Z 21008KT 24/03 A299 RMK A01 T02390032  RH  026%=      5-min Rain = 0
KCR2 191917Z 21009KT 24/03 A299 RMK A01 T02380034  RH  026%=      5-min Rain = 0
KCR2 191918Z 22006KT 24/04 A299 RMK A01 T02390038  RH  027%=      5-min Rain = 0
KCR2 191919Z 22004KT 24/04 A299 RMK A01 T02380041  RH  028%=      5-min Rain = 0
KCR2 191920Z 21006KT 24/04 A299 RMK A01 T02370042  RH  028%=      5-min Rain = 0
KCR2 191921Z 21006KT 24/04 A299 RMK A01 T02390040  RH  028%=      5-min Rain = 0
KCR2 191922Z 21004KT 24/04 A299 RMK A01 T02400040  RH  027%=      5-min Rain = 0
KCR2 191923Z 22007KT 24/04 A299 RMK A01 T02410041  RH  027%=      5-min Rain = 0
KCR2 191924Z 23007KT 24/04 A299 RMK A01 T02430039  RH  027%=      5-min Rain = 0
KCR2 191925Z 21005KT 24/04 A299 RMK A01 T02410042  RH  027%=      5-min Rain = 0
KCR2 191926Z 20009KT 24/04 A299 RMK A01 T02420040  RH  027%=      5-min Rain = 0
KCR2 191927Z 20009KT 24/04 A299 RMK A01 T02430043  RH  027%=      5-min Rain = 0
KCR2 191928Z 20007KT 24/04 A299 RMK A01 T02430041  RH  027%=      5-min Rain = 0
KCR2 191929Z 20007KT 24/04 A299 RMK A01 T02420039  RH  027%=      5-min Rain = 0
KCR2 191930Z 21006KT 24/04 A299 RMK A01 T02420040  RH  027%=      5-min Rain = 0
KCR2 191931Z 20006KT 24/04 A299 RMK A01 T02420040  RH  027%=      5-min Rain = 0
KCR2 191932Z 21006KT 24/03 A299 RMK A01 T02420034  RH  026%=      5-min Rain = 0
KCR2 191933Z 22007KT 24/03 A2989 RMK A01 T02440031  RH  025%=      5-min Rain = 0
KCR2 191934Z 22009KT 25/03 A2989 RMK A01 T02450030  RH  025%=      5-min Rain = 0
KCR2 191935Z 23007KT 24/03 A2989 RMK A01 T02440029  RH  025%=      5-min Rain = 0
KCR2 191936Z 23005KT 24/03 A2989 RMK A01 T02430029  RH  025%=      5-min Rain = 0
KCR2 191937Z 24005KT 25/03 A2989 RMK A01 T02450033  RH  025%=      5-min Rain = 0
KCR2 191938Z 23006KT 25/03 A2989 RMK A01 T02460030  RH  025%=      5-min Rain = 0
KCR2 191939Z 22009KT 25/04 A2989 RMK A01 T02460035  RH  025%=      5-min Rain = 0
KCR2 191940Z 23007KT 25/04 A2989 RMK A01 T02450039  RH  026%=      5-min Rain = 0
KCR2 191941Z 24005KT 24/04 A2989 RMK A01 T02430039  RH  026%=      5-min Rain = 0
KCR2 191942Z 24004KT 24/04 A2989 RMK A01 T02430039  RH  027%=      5-min Rain = 0
KCR2 191943Z 21005KT 24/04 A2989 RMK A01 T02440040  RH  027%=      5-min Rain = 0
KCR2 191944Z 21005KT 25/04 A2989 RMK A01 T02460038  RH  026%=      5-min Rain = 0
KCR2 191945Z 19006KT 25/04 A2989 RMK A01 T02460037  RH  026%=      5-min Rain = 0
KCR2 191946Z 18007KT 25/04 A2989 RMK A01 T02460037  RH  026%=      5-min Rain = 0
KCR2 191947Z 18005KT 25/04 A2989 RMK A01 T02450037  RH  026%=      5-min Rain = 0
KCR2 191948Z 18006G11KT 25/04 A2989 RMK A01 T02450037  RH  026%=      5-min Rain = 0
KCR2 191949Z 20010KT 25/03 A2988 RMK A01 T02460034  RH  025%=      5-min Rain = 0
KCR2 191950Z 21009KT 25/03 A2988 RMK A01 T02490034  RH  025%=      5-min Rain = 0
KCR2 191951Z 22007KT 25/03 A2988 RMK A01 T02480034  RH  025%=      5-min Rain = 0
KCR2 191952Z 21006KT 25/03 A2988 RMK A01 T02460032  RH  025%=      5-min Rain = 0
KCR2 191953Z 19006KT 25/03 A2988 RMK A01 T02460033  RH  025%=      5-min Rain = 0
KCR2 191954Z 21006KT 25/04 A2988 RMK A01 T02470037  RH  025%=      5-min Rain = 0
KCR2 191955Z 21005KT 25/04 A2988 RMK A01 T02480038  RH  026%=      5-min Rain = 0
KCR2 191956Z 20007KT 25/04 A2988 RMK A01 T02520040  RH  025%=      5-min Rain = 0
KCR2 191957Z 20006KT 25/04 A2988 RMK A01 T02530038  RH  025%=      5-min Rain = 0
KCR2 191958Z 21009KT 25/03 A2988 RMK A01 T02520032  RH  024%=      5-min Rain = 0
KCR2 191959Z 20008KT 25/03 A2988 RMK A01 T02530030  RH  024%=      5-min Rain = 0
KCR2 192000Z 21008KT 25/03 A2988 RMK A01 T02530029  RH  023%=      5-min Rain = 0
KCR2 192001Z 20009KT 25/03 A2988 RMK A01 T02530027  RH  023%=      5-min Rain = 0
KCR2 192002Z 20007KT 25/03 A2988 RMK A01 T02520026  RH  023%=      5-min Rain = 0
KCR2 192003Z 20008KT 25/03 A2987 RMK A01 T02510029  RH  024%=      5-min Rain = 0
KCR2 192004Z 20006KT 25/03 A2987 RMK A01 T02520029  RH  023%=      5-min Rain = 0
KCR2 192005Z 20007KT 25/03 A2987 RMK A01 T02500030  RH  024%=      5-min Rain = 0
KCR2 192006Z 19007KT 25/03 A2987 RMK A01 T02520031  RH  024%=      5-min Rain = 0
KCR2 192007Z 18007KT 25/03 A2987 RMK A01 T02540028  RH  023%=      5-min Rain = 0
KCR2 192008Z 20010KT 26/03 A2987 RMK A01 T02550031  RH  023%=      5-min Rain = 0
KCR2 192009Z 19010KT 26/03 A2987 RMK A01 T02580031  RH  023%=      5-min Rain = 0
KCR2 192010Z 20008KT 26/03 A2987 RMK A01 T02570029  RH  023%=      5-min Rain = 0
KCR2 192011Z 18008KT 26/03 A2987 RMK A01 T02560030  RH  023%=      5-min Rain = 0
KCR2 192012Z 18006KT 26/03 A2987 RMK A01 T02560029  RH  023%=      5-min Rain = 0
KCR2 192013Z 19007KT 26/03 A2987 RMK A01 T02550030  RH  023%=      5-min Rain = 0
KCR2 192014Z 19010KT 26/03 A2987 RMK A01 T02560032  RH  023%=      5-min Rain = 0
KCR2 192015Z 19009KT 26/03 A2987 RMK A01 T02570030  RH  023%=      5-min Rain = 0
KCR2 192016Z 18009KT 26/03 A2987 RMK A01 T02560027  RH  023%=      5-min Rain = 0
KCR2 192017Z 18010KT 26/03 A2987 RMK A01 T02560026  RH  023%=      5-min Rain = 0
KCR2 192018Z 19009KT 26/03 A2986 RMK A01 T02560025  RH  022%=      5-min Rain = 0
KCR2 192019Z 18009KT 26/03 A2986 RMK A01 T02550027  RH  023%=      5-min Rain = 0
KCR2 192020Z 19008KT 26/03 A2986 RMK A01 T02560027  RH  023%=      5-min Rain = 0
KCR2 192021Z 19007KT 26/03 A2986 RMK A01 T02560026  RH  022%=      5-min Rain = 0
KCR2 192022Z 19007KT 26/03 A2986 RMK A01 T02550026  RH  023%=      5-min Rain = 0
KCR2 192023Z 18009KT 26/03 A2986 RMK A01 T02570026  RH  022%=      5-min Rain = 0
KCR2 192024Z 18010KT 26/02 A2986 RMK A01 T02580023  RH  022%=      5-min Rain = 0
KCR2 192025Z 18009KT 26/02 A2986 RMK A01 T02590023  RH  022%=      5-min Rain = 0
KCR2 192026Z 19008KT 26/02 A2986 RMK A01 T02590023  RH  022%=      5-min Rain = 0
KCR2 192027Z 20007KT 26/02 A2986 RMK A01 T02580023  RH  022%=      5-min Rain = 0
KCR2 192028Z 20009KT 26/03 A2986 RMK A01 T02590027  RH  022%=      5-min Rain = 0
KCR2 192029Z 19011KT 26/02 A2986 RMK A01 T02610024  RH  021%=      5-min Rain = 0
KCR2 192030Z 20009KT 26/02 A2986 RMK A01 T02610024  RH  021%=      5-min Rain = 0
KCR2 192031Z 19010KT 26/03 A2986 RMK A01 T02610026  RH  022%=      5-min Rain = 0
KCR2 192032Z 19010KT 26/02 A2986 RMK A01 T02610022  RH  021%=      5-min Rain = 0
KCR2 192033Z 20010KT 26/02 A2986 RMK A01 T02600021  RH  021%=      5-min Rain = 0
KCR2 192034Z 20009KT 26/03 A2986 RMK A01 T02600026  RH  022%=      5-min Rain = 0
KCR2 192035Z 20010KT 26/03 A2986 RMK A01 T02630029  RH  022%=      5-min Rain = 0
KCR2 192036Z 19008KT 26/03 A2986 RMK A01 T02640025  RH  021%=      5-min Rain = 0
KCR2 192037Z 18011KT 26/03 A2985 RMK A01 T02640025  RH  021%=      5-min Rain = 0
KCR2 192038Z 18011KT 26/02 A2985 RMK A01 T02630024  RH  021%=      5-min Rain = 0
KCR2 192039Z 18011KT 26/02 A2985 RMK A01 T02630023  RH  021%=      5-min Rain = 0
KCR2 192040Z 18010KT 26/02 A2985 RMK A01 T02640024  RH  021%=      5-min Rain = 0
KCR2 192041Z 18011KT 26/03 A2985 RMK A01 T02640025  RH  021%=      5-min Rain = 0
KCR2 192042Z 19010KT 26/03 A2985 RMK A01 T02640025  RH  021%=      5-min Rain = 0
KCR2 192043Z 19009KT 26/03 A2986 RMK A01 T02630025  RH  021%=      5-min Rain = 0
KCR2 192044Z 19007KT 26/03 A2986 RMK A01 T02620029  RH  022%=      5-min Rain = 0
KCR2 192045Z 19007KT 26/03 A2986 RMK A01 T02640031  RH  022%=      5-min Rain = 0
KCR2 192046Z 19010KT 27/03 A2985 RMK A01 T02660028  RH  021%=      5-min Rain = 0
KCR2 192047Z 19010KT 27/03 A2985 RMK A01 T02670028  RH  021%=      5-min Rain = 0
KCR2 192048Z 19010KT 27/03 A2985 RMK A01 T02680028  RH  021%=      5-min Rain = 0
KCR2 192049Z 19007KT 27/03 A2985 RMK A01 T02670026  RH  021%=      5-min Rain = 0
KCR2 192050Z 19009KT 27/02 A2985 RMK A01 T02670023  RH  021%=      5-min Rain = 0
KCR2 192051Z 19008KT 27/02 A2985 RMK A01 T02680023  RH  020%=      5-min Rain = 0
KCR2 192052Z 22009KT 27/02 A2985 RMK A01 T02680019  RH  020%=      5-min Rain = 0
KCR2 192053Z 23007KT 27/01 A2985 RMK A01 T02680012  RH  019%=      5-min Rain = 0
KCR2 192054Z 23009KT 27/01 A2985 RMK A01 T02670014  RH  019%=      5-min Rain = 0
KCR2 192055Z 22010KT 27/02 A2985 RMK A01 T02680017  RH  020%=      5-min Rain = 0
KCR2 192056Z 22009KT 27/02 A2985 RMK A01 T02690016  RH  019%=      5-min Rain = 0
KCR2 192057Z 23009KT 27/02 A2985 RMK A01 T02670015  RH  020%=      5-min Rain = 0
KCR2 192058Z 24011KT 27/02 A2985 RMK A01 T02660016  RH  020%=      5-min Rain = 0
KCR2 192059Z 23010KT 27/01 A2985 RMK A01 T02660013  RH  019%=      5-min Rain = 0
KCR2 192100Z 23009KT 27/01 A2985 RMK A01 T02660012  RH  019%=      5-min Rain = 0
KCR2 192101Z 23006KT 27/01 A2985 RMK A01 T02660014  RH  019%=      5-min Rain = 0
KCR2 192102Z 22008KT 27/02 A2985 RMK A01 T02660016  RH  020%=      5-min Rain = 0
KCR2 192103Z 22010KT 27/02 A2985 RMK A01 T02670015  RH  020%=      5-min Rain = 0
KCR2 192104Z 22008KT 27/02 A2985 RMK A01 T02670015  RH  019%=      5-min Rain = 0
KCR2 192105Z 22006KT 27/02 A2985 RMK A01 T02660019  RH  020%=      5-min Rain = 0
KCR2 192106Z 23007KT 27/02 A2985 RMK A01 T02670020  RH  020%=      5-min Rain = 0
KCR2 192107Z 22012KT 27/02 A2985 RMK A01 T02680018  RH  020%=      5-min Rain = 0
KCR2 192108Z 22010KT 27/02 A2985 RMK A01 T02680016  RH  019%=      5-min Rain = 0
KCR2 192109Z 22009KT 27/02 A2985 RMK A01 T02680015  RH  019%=      5-min Rain = 0
KCR2 192110Z 21008KT 27/02 A2985 RMK A01 T02680016  RH  019%=      5-min Rain = 0
KCR2 192111Z 21007KT 27/02 A2985 RMK A01 T02690017  RH  020%=      5-min Rain = 0
KCR2 192112Z 21011KT 27/02 A2985 RMK A01 T02690018  RH  020%=      5-min Rain = 0
KCR2 192113Z 21010KT 27/02 A2985 RMK A01 T02700018  RH  019%=      5-min Rain = 0
KCR2 192114Z 20010KT 27/02 A2985 RMK A01 T02690017  RH  019%=      5-min Rain = 0
KCR2 192115Z 20010KT 27/02 A2985 RMK A01 T02670015  RH  019%=      5-min Rain = 0
KCR2 192116Z 20007KT 27/02 A2985 RMK A01 T02670015  RH  020%=      5-min Rain = 0
KCR2 192117Z 22009KT 27/02 A2985 RMK A01 T02680017  RH  020%=      5-min Rain = 0
KCR2 192118Z 21010KT 27/02 A2985 RMK A01 T02690018  RH  020%=      5-min Rain = 0
KCR2 192119Z 21009KT 27/02 A2985 RMK A01 T02690020  RH  020%=      5-min Rain = 0
KCR2 192120Z 23008KT 27/02 A2985 RMK A01 T02690020  RH  020%=      5-min Rain = 0
KCR2 192121Z 21009KT 27/02 A2985 RMK A01 T02690020  RH  020%=      5-min Rain = 0
KCR2 192122Z 22009KT 27/02 A2985 RMK A01 T02690016  RH  019%=      5-min Rain = 0
KCR2 192123Z 22011KT 27/02 A2985 RMK A01 T02700016  RH  019%=      5-min Rain = 0
KCR2 192124Z 22010KT 27/02 A2985 RMK A01 T02700017  RH  019%=      5-min Rain = 0
KCR2 192125Z 22010KT 27/02 A2985 RMK A01 T02690018  RH  020%=      5-min Rain = 0
KCR2 192126Z 23007KT 27/02 A2985 RMK A01 T02690019  RH  020%=      5-min Rain = 0
KCR2 192127Z 21010KT 27/02 A2985 RMK A01 T02690020  RH  020%=      5-min Rain = 0
KCR2 192128Z 19013KT 27/02 A2984 RMK A01 T02690020  RH  020%=      5-min Rain = 0
KCR2 192129Z 20011KT 27/02 A2985 RMK A01 T02690019  RH  020%=      5-min Rain = 0
KCR2 192130Z 21010KT 27/02 A2985 RMK A01 T02690020  RH  020%=      5-min Rain = 0
KCR2 192131Z 22008KT 27/02 A2985 RMK A01 T02690019  RH  020%=      5-min Rain = 0
KCR2 192132Z 21007KT 27/02 A2985 RMK A01 T02680017  RH  020%=      5-min Rain = 0
KCR2 192133Z 21008KT 27/02 A2985 RMK A01 T02670018  RH  020%=      5-min Rain = 0
KCR2 192134Z 20011KT 27/02 A2985 RMK A01 T02670018  RH  020%=      5-min Rain = 0
KCR2 192135Z 21010KT 27/01 A2985 RMK A01 T02670013  RH  019%=      5-min Rain = 0
KCR2 192136Z 22011KT 27/01 A2985 RMK A01 T02670012  RH  019%=      5-min Rain = 0
KCR2 192137Z 21011KT 27/01 A2985 RMK A01 T02670011  RH  019%=      5-min Rain = 0
KCR2 192138Z 21009KT 27/01 A2985 RMK A01 T02670013  RH  019%=      5-min Rain = 0
KCR2 192139Z 21008KT 27/01 A2985 RMK A01 T02670014  RH  019%=      5-min Rain = 0
KCR2 192140Z 21008KT 27/01 A2985 RMK A01 T02670014  RH  019%=      5-min Rain = 0
KCR2 192141Z 20008KT 27/01 A2985 RMK A01 T02670014  RH  019%=      5-min Rain = 0
KCR2 192142Z 20008KT 27/02 A2985 RMK A01 T02660015  RH  019%=      5-min Rain = 0
KCR2 192143Z 20008KT 27/02 A2985 RMK A01 T02660016  RH  020%=      5-min Rain = 0
KCR2 192144Z 20010KT 27/02 A2984 RMK A01 T02660016  RH  020%=      5-min Rain = 0
KCR2 192145Z 20009KT 27/02 A2984 RMK A01 T02670016  RH  020%=      5-min Rain = 0
KCR2 192146Z 21009KT 27/02 A2984 RMK A01 T02680016  RH  019%=      5-min Rain = 0
KCR2 192147Z 21009KT 27/02 A2984 RMK A01 T02680016  RH  019%=      5-min Rain = 0
KCR2 192148Z 20008KT 27/02 A2984 RMK A01 T02680016  RH  019%=      5-min Rain = 0
KCR2 192149Z 19009KT 27/02 A2984 RMK A01 T02690017  RH  019%=      5-min Rain = 0
KCR2 192150Z 19009KT 27/02 A2984 RMK A01 T02690015  RH  019%=      5-min Rain = 0
KCR2 192151Z 20010KT 27/02 A2984 RMK A01 T02690017  RH  019%=      5-min Rain = 0
KCR2 192152Z 19009KT 27/02 A2984 RMK A01 T02690019  RH  020%=      5-min Rain = 0
KCR2 192153Z 19008KT 27/02 A2984 RMK A01 T02690020  RH  020%=      5-min Rain = 0
KCR2 192154Z 19008KT 27/02 A2984 RMK A01 T02680020  RH  020%=      5-min Rain = 0
KCR2 192155Z 20007KT 27/02 A2984 RMK A01 T02680021  RH  020%=      5-min Rain = 0
KCR2 192156Z 21009KT 27/02 A2984 RMK A01 T02680017  RH  020%=      5-min Rain = 0
KCR2 192157Z 21010KT 27/02 A2984 RMK A01 T02690017  RH  020%=      5-min Rain = 0
KCR2 192158Z 20010KT 27/02 A2984 RMK A01 T02690017  RH  020%=      5-min Rain = 0
KCR2 192159Z 20010KT 27/02 A2984 RMK A01 T02690017  RH  019%=      5-min Rain = 0
KCR2 192200Z 21008KT 27/02 A2984 RMK A01 T02680016  RH  019%=      5-min Rain = 0
KCR2 192201Z 20010KT 27/01 A2984 RMK A01 T02680014  RH  019%=      5-min Rain = 0
KCR2 192202Z 21008KT 27/01 A2984 RMK A01 T02680012  RH  019%=      5-min Rain = 0
KCR2 192203Z 20008KT 27/01 A2984 RMK A01 T02680013  RH  019%=      5-min Rain = 0
KCR2 192204Z 20007KT 27/01 A2984 RMK A01 T02670013  RH  019%=      5-min Rain = 0
KCR2 192205Z 21007KT 27/01 A2984 RMK A01 T02680013  RH  019%=      5-min Rain = 0
KCR2 192206Z 21008KT 27/02 A2984 RMK A01 T02680015  RH  019%=      5-min Rain = 0
KCR2 192207Z 21007KT 27/01 A2984 RMK A01 T02670014  RH  019%=      5-min Rain = 0
KCR2 192208Z 21009KT 27/01 A2984 RMK A01 T02670014  RH  019%=      5-min Rain = 0
KCR2 192209Z 20010KT 27/02 A2984 RMK A01 T02660015  RH  020%=      5-min Rain = 0
KCR2 192210Z 19009KT 27/01 A2984 RMK A01 T02650014  RH  020%=      5-min Rain = 0
KCR2 192211Z 20007KT 27/01 A2984 RMK A01 T02650014  RH  020%=      5-min Rain = 0
KCR2 192212Z 21007KT 26/01 A2984 RMK A01 T02640014  RH  020%=      5-min Rain = 0
KCR2 192213Z 22006KT 26/02 A2984 RMK A01 T02630015  RH  020%=      5-min Rain = 0
KCR2 192214Z 21007KT 26/02 A2984 RMK A01 T02630016  RH  020%=      5-min Rain = 0
KCR2 192215Z 20007KT 26/02 A2984 RMK A01 T02630016  RH  020%=      5-min Rain = 0
KCR2 192216Z 19008KT 26/02 A2984 RMK A01 T02640016  RH  020%=      5-min Rain = 0
KCR2 192217Z 19008KT 26/02 A2983 RMK A01 T02640017  RH  020%=      5-min Rain = 0
KCR2 192218Z 19008KT 26/02 A2983 RMK A01 T02640016  RH  020%=      5-min Rain = 0
KCR2 192219Z 19007KT 26/02 A2983 RMK A01 T02640016  RH  020%=      5-min Rain = 0
KCR2 192220Z 19007KT 26/02 A2983 RMK A01 T02640017  RH  020%=      5-min Rain = 0
KCR2 192221Z 19007KT 26/02 A2983 RMK A01 T02640018  RH  020%=      5-min Rain = 0
KCR2 192222Z 20006KT 26/02 A2983 RMK A01 T02640017  RH  020%=      5-min Rain = 0
KCR2 192223Z 19006KT 26/02 A2983 RMK A01 T02640017  RH  020%=      5-min Rain = 0
KCR2 192224Z 19007KT 26/02 A2983 RMK A01 T02640018  RH  020%=      5-min Rain = 0
KCR2 192225Z 19006KT 26/02 A2983 RMK A01 T02640019  RH  020%=      5-min Rain = 0
KCR2 192226Z 19008KT 26/02 A2983 RMK A01 T02640019  RH  020%=      5-min Rain = 0
KCR2 192227Z 20008KT 26/02 A2983 RMK A01 T02640019  RH  020%=      5-min Rain = 0
KCR2 192228Z 20008KT 26/02 A2983 RMK A01 T02640020  RH  021%=      5-min Rain = 0
KCR2 192229Z 19008KT 26/02 A2983 RMK A01 T02630020  RH  021%=      5-min Rain = 0
KCR2 192230Z 19007KT 26/02 A2983 RMK A01 T02640020  RH  021%=      5-min Rain = 0
KCR2 192231Z 19007KT 26/02 A2983 RMK A01 T02630020  RH  021%=      5-min Rain = 0
KCR2 192232Z 20006KT 26/02 A2983 RMK A01 T02630021  RH  021%=      5-min Rain = 0
KCR2 192233Z 19005KT 26/02 A2983 RMK A01 T02620021  RH  021%=      5-min Rain = 0
KCR2 192234Z 19005KT 26/02 A2983 RMK A01 T02610021  RH  021%=      5-min Rain = 0
KCR2 192235Z 19006KT 26/02 A2983 RMK A01 T02600020  RH  021%=      5-min Rain = 0
KCR2 192236Z 19005KT 26/02 A2983 RMK A01 T02600020  RH  021%=      5-min Rain = 0
KCR2 192237Z 19005KT 26/02 A2983 RMK A01 T02590017  RH  021%=      5-min Rain = 0
KCR2 192238Z 19005KT 26/02 A2983 RMK A01 T02590017  RH  021%=      5-min Rain = 0
KCR2 192239Z 19005KT 26/02 A2983 RMK A01 T02590018  RH  021%=      5-min Rain = 0
KCR2 192240Z 19006KT 26/02 A2983 RMK A01 T02590018  RH  021%=      5-min Rain = 0
KCR2 192241Z 18006KT 26/02 A2983 RMK A01 T02580015  RH  020%=      5-min Rain = 0
KCR2 192242Z 18007KT 26/02 A2983 RMK A01 T02580020  RH  021%=      5-min Rain = 0
KCR2 192243Z 17008KT 26/03 A2983 RMK A01 T02580027  RH  022%=      5-min Rain = 0
KCR2 192244Z 17008KT 26/05 A2983 RMK A01 T02580046  RH  025%=      5-min Rain = 0
KCR2 192245Z 17007KT 26/05 A2983 RMK A01 T02570048  RH  026%=      5-min Rain = 0
KCR2 192246Z 17007KT 26/05 A2983 RMK A01 T02560049  RH  026%=      5-min Rain = 0
KCR2 192247Z 17008KT 26/05 A2983 RMK A01 T02550054  RH  027%=      5-min Rain = 0
KCR2 192248Z 18008KT 26/06 A2983 RMK A01 T02550056  RH  028%=      5-min Rain = 0
KCR2 192249Z 18008KT 25/06 A2983 RMK A01 T02540056  RH  028%=      5-min Rain = 0
KCR2 192250Z 18009KT 25/06 A2983 RMK A01 T02540057  RH  028%=      5-min Rain = 0
KCR2 192251Z 18007KT 25/06 A2983 RMK A01 T02540058  RH  029%=      5-min Rain = 0
KCR2 192252Z 18008KT 25/06 A2984 RMK A01 T02530058  RH  029%=      5-min Rain = 0
KCR2 192253Z 18011KT 25/06 A2983 RMK A01 T02530059  RH  029%=      5-min Rain = 0
KCR2 192254Z 17012KT 25/06 A2983 RMK A01 T02530060  RH  029%=      5-min Rain = 0
KCR2 192255Z 17011KT 25/06 A2983 RMK A01 T02530060  RH  029%=      5-min Rain = 0
KCR2 192256Z 17011KT 25/06 A2983 RMK A01 T02530061  RH  029%=      5-min Rain = 0
KCR2 192257Z 17011KT 25/06 A2983 RMK A01 T02520061  RH  029%=      5-min Rain = 0
KCR2 192258Z 17010KT 25/06 A2983 RMK A01 T02510061  RH  029%=      5-min Rain = 0
KCR2 192259Z 17009KT 25/06 A2983 RMK A01 T02500061  RH  030%=      5-min Rain = 0
KCR2 192300Z 17009KT 25/06 A2983 RMK A01 T02490061  RH  030%=      5-min Rain = 0
KCR2 192301Z 17009KT 25/06 A2983 RMK A01 T02480060  RH  030%=      5-min Rain = 0
KCR2 192302Z 17010KT 25/06 A2983 RMK A01 T02470061  RH  030%=      5-min Rain = 0
KCR2 192303Z 17010KT 25/06 A2983 RMK A01 T02460060  RH  030%=      5-min Rain = 0
KCR2 192304Z 17010KT 25/06 A2983 RMK A01 T02460061  RH  030%=      5-min Rain = 0
KCR2 192305Z 17010KT 25/06 A2983 RMK A01 T02460061  RH  030%=      5-min Rain = 0
KCR2 192306Z 17010KT 25/06 A2983 RMK A01 T02450061  RH  031%=      5-min Rain = 0
KCR2 192307Z 17010KT 25/06 A2983 RMK A01 T02450061  RH  031%=      5-min Rain = 0
KCR2 192308Z 17011KT 25/06 A2983 RMK A01 T02450061  RH  031%=      5-min Rain = 0
KCR2 192309Z 17010KT 25/06 A2983 RMK A01 T02450061  RH  031%=      5-min Rain = 0
KCR2 192310Z 17010KT 25/06 A2983 RMK A01 T02450061  RH  031%=      5-min Rain = 0
KCR2 192311Z 17010KT 25/06 A2983 RMK A01 T02450061  RH  031%=      5-min Rain = 0
KCR2 192312Z 17010KT 24/06 A2983 RMK A01 T02440061  RH  031%=      5-min Rain = 0
KCR2 192313Z 17011KT 24/06 A2983 RMK A01 T02440062  RH  031%=      5-min Rain = 0
KCR2 192314Z 17010KT 24/06 A2983 RMK A01 T02440062  RH  031%=      5-min Rain = 0
KCR2 192315Z 17010KT 24/06 A2983 RMK A01 T02430061  RH  031%=      5-min Rain = 0
KCR2 192316Z 17010KT 24/06 A2983 RMK A01 T02420062  RH  031%=      5-min Rain = 0
KCR2 192317Z 17010KT 24/06 A2983 RMK A01 T02420062  RH  031%=      5-min Rain = 0
KCR2 192318Z 17012KT 24/06 A2983 RMK A01 T02410062  RH  032%=      5-min Rain = 0
KCR2 192319Z 16011KT 24/06 A2983 RMK A01 T02410062  RH  032%=      5-min Rain = 0
KCR2 192320Z 17012KT 24/06 A2983 RMK A01 T02410063  RH  032%=      5-min Rain = 0
KCR2 192321Z 17012KT 24/06 A2983 RMK A01 T02410063  RH  032%=      5-min Rain = 0
KCR2 192322Z 17011KT 24/06 A2983 RMK A01 T02410063  RH  032%=      5-min Rain = 0
KCR2 192323Z 17010KT 24/06 A2983 RMK A01 T02410062  RH  032%=      5-min Rain = 0
KCR2 192324Z 17013KT 24/06 A2983 RMK A01 T02410063  RH  032%=      5-min Rain = 0
KCR2 192325Z 17012KT 24/06 A2983 RMK A01 T02410063  RH  032%=      5-min Rain = 0
KCR2 192326Z 17011KT 24/06 A2983 RMK A01 T02420063  RH  032%=      5-min Rain = 0
KCR2 192327Z 17011KT 24/06 A2983 RMK A01 T02420063  RH  032%=      5-min Rain = 0
KCR2 192328Z 17010KT 24/06 A2983 RMK A01 T02420063  RH  032%=      5-min Rain = 0
KCR2 192329Z 17010KT 24/06 A2983 RMK A01 T02410063  RH  032%=      5-min Rain = 0
KCR2 192330Z 17011KT 24/06 A2983 RMK A01 T02400063  RH  032%=      5-min Rain = 0
KCR2 192331Z 17009KT 24/06 A2983 RMK A01 T02400063  RH  032%=      5-min Rain = 0
KCR2 192332Z 17011KT 24/06 A2983 RMK A01 T02390063  RH  032%=      5-min Rain = 0
KCR2 192333Z 17011KT 24/06 A2983 RMK A01 T02390063  RH  032%=      5-min Rain = 0
KCR2 192334Z 17011KT 24/06 A2983 RMK A01 T02390063  RH  032%=      5-min Rain = 0
KCR2 192335Z 16012KT 24/06 A2984 RMK A01 T02390063  RH  032%=      5-min Rain = 0
KCR2 192336Z 17012KT 24/06 A2984 RMK A01 T02380063  RH  032%=      5-min Rain = 0
KCR2 192337Z 17011KT 24/06 A2984 RMK A01 T02380063  RH  032%=      5-min Rain = 0
KCR2 192338Z 17013KT 24/06 A2984 RMK A01 T02370062  RH  032%=      5-min Rain = 0
KCR2 192339Z 17012KT 24/06 A2984 RMK A01 T02370062  RH  032%=      5-min Rain = 0
KCR2 192340Z 17013KT 24/06 A2984 RMK A01 T02370062  RH  032%=      5-min Rain = 0
KCR2 192341Z 17013KT 24/06 A2984 RMK A01 T02370062  RH  032%=      5-min Rain = 0
KCR2 192342Z 16012KT 24/06 A2984 RMK A01 T02370062  RH  032%=      5-min Rain = 0
KCR2 192343Z 17014KT 24/06 A2984 RMK A01 T02370062  RH  032%=      5-min Rain = 0
KCR2 192344Z 17012KT 24/06 A2984 RMK A01 T02370062  RH  032%=      5-min Rain = 0
KCR2 192345Z 17011KT 24/06 A2984 RMK A01 T02360062  RH  033%=      5-min Rain = 0
KCR2 192346Z 17012KT 24/06 A2984 RMK A01 T02350062  RH  033%=      5-min Rain = 0
KCR2 192347Z 16011KT 24/06 A2984 RMK A01 T02350062  RH  033%=      5-min Rain = 0
KCR2 192348Z 17012KT 23/06 A2984 RMK A01 T02340062  RH  033%=      5-min Rain = 0
KCR2 192349Z 16012KT 23/06 A2984 RMK A01 T02340062  RH  033%=      5-min Rain = 0
KCR2 192350Z 16012KT 23/06 A2984 RMK A01 T02340062  RH  033%=      5-min Rain = 0
KCR2 192351Z 16011KT 23/06 A2984 RMK A01 T02340063  RH  033%=      5-min Rain = 0
KCR2 192352Z 16014KT 23/06 A2983 RMK A01 T02340062  RH  033%=      5-min Rain = 0
KCR2 192353Z 17013KT 23/06 A2983 RMK A01 T02340063  RH  033%=      5-min Rain = 0
KCR2 192354Z 17014KT 23/06 A2983 RMK A01 T02340063  RH  033%=      5-min Rain = 0
KCR2 192355Z 16014KT 23/06 A2983 RMK A01 T02340063  RH  033%=      5-min Rain = 0
KCR2 192356Z 16012KT 23/06 A2984 RMK A01 T02340063  RH  033%=      5-min Rain = 0
KCR2 192357Z 17014KT 23/06 A2984 RMK A01 T02330063  RH  033%=      5-min Rain = 0
KCR2 192358Z 17014KT 23/06 A2984 RMK A01 T02330063  RH  033%=      5-min Rain = 0
KCR2 192359Z 17012KT 23/06 A2984 RMK A01 T02330063  RH  033%=      5-min Rain = 0
KCR2 200000Z 17012KT 23/06 A2984 RMK A01 T02330063  RH  033%=      5-min Rain = 0
KCR2 200001Z 17012KT 23/06 A2984 RMK A01 T02320063  RH  034%=      5-min Rain = 0
KCR2 200002Z 17012KT 23/06 A2984 RMK A01 T02320063  RH  034%=      5-min Rain = 0
KCR2 200003Z 17016KT 23/06 A2984 RMK A01 T02310063  RH  034%=      5-min Rain = 0
KCR2 200004Z 17014KT 23/06 A2984 RMK A01 T02310063  RH  034%=      5-min Rain = 0
KCR2 200005Z 17014KT 23/06 A2984 RMK A01 T02310063  RH  034%=      5-min Rain = 0
KCR2 200006Z 18013KT 23/06 A2984 RMK A01 T02310063  RH  034%=      5-min Rain = 0
KCR2 200007Z 17011KT 23/06 A2984 RMK A01 T02310063  RH  034%=      5-min Rain = 0
KCR2 200008Z 17009KT 23/06 A2984 RMK A01 T02310063  RH  034%=      5-min Rain = 0
KCR2 200009Z 17008KT 23/06 A2984 RMK A01 T02300064  RH  034%=      5-min Rain = 0
KCR2 200010Z 17007KT 23/06 A2984 RMK A01 T02290063  RH  034%=      5-min Rain = 0
KCR2 200011Z 17008KT 23/06 A2984 RMK A01 T02290063  RH  034%=      5-min Rain = 0
KCR2 200012Z 17012KT 23/06 A2984 RMK A01 T02280064  RH  034%=      5-min Rain = 0
KCR2 200013Z 17013KT 23/06 A2984 RMK A01 T02280064  RH  035%=      5-min Rain = 0
KCR2 200014Z 16013KT 23/06 A2984 RMK A01 T02270064  RH  035%=      5-min Rain = 0
KCR2 200015Z 16013KT 23/06 A2984 RMK A01 T02270064  RH  035%=      5-min Rain = 0
KCR2 200016Z 16013KT 23/06 A2984 RMK A01 T02280064  RH  035%=      5-min Rain = 0
KCR2 200017Z 16012KT 23/06 A2984 RMK A01 T02280064  RH  035%=      5-min Rain = 0
KCR2 200018Z 16011KT 23/06 A2984 RMK A01 T02280064  RH  035%=      5-min Rain = 0
KCR2 200019Z 16011KT 23/06 A2984 RMK A01 T02280064  RH  035%=      5-min Rain = 0
KCR2 200020Z 16013KT 23/06 A2984 RMK A01 T02270064  RH  035%=      5-min Rain = 0
KCR2 200021Z 16013KT 23/06 A2984 RMK A01 T02270064  RH  035%=      5-min Rain = 0
KCR2 200022Z 17014KT 23/06 A2984 RMK A01 T02270064  RH  035%=      5-min Rain = 0
KCR2 200023Z 17013KT 23/06 A2984 RMK A01 T02260064  RH  035%=      5-min Rain = 0
KCR2 200024Z 17012KT 22/06 A2984 RMK A01 T02240064  RH  035%=      5-min Rain = 0
KCR2 200025Z 17013KT 22/06 A2984 RMK A01 T02240064  RH  035%=      5-min Rain = 0
KCR2 200026Z 18015KT 22/06 A2984 RMK A01 T02240064  RH  035%=      5-min Rain = 0
KCR2 200027Z 17013KT 23/07 A2984 RMK A01 T02250065  RH  035%=      5-min Rain = 0
KCR2 200028Z 17014KT 22/06 A2984 RMK A01 T02240064  RH  036%=      5-min Rain = 0
KCR2 200029Z 18012KT 22/06 A2984 RMK A01 T02230064  RH  036%=      5-min Rain = 0
KCR2 200030Z 17013KT 22/07 A2984 RMK A01 T02230065  RH  036%=      5-min Rain = 0
KCR2 200031Z 17012KT 22/07 A2984 RMK A01 T02230065  RH  036%=      5-min Rain = 0
KCR2 200032Z 17012KT 22/07 A2984 RMK A01 T02230065  RH  036%=      5-min Rain = 0
KCR2 200033Z 17014KT 22/07 A2984 RMK A01 T02220065  RH  036%=      5-min Rain = 0
KCR2 200034Z 17014KT 22/07 A2984 RMK A01 T02210066  RH  036%=      5-min Rain = 0
KCR2 200035Z 17012KT 22/07 A2984 RMK A01 T02210065  RH  037%=      5-min Rain = 0
KCR2 200036Z 17013KT 22/07 A2984 RMK A01 T02200065  RH  037%=      5-min Rain = 0
KCR2 200037Z 17013KT 22/07 A2984 RMK A01 T02180066  RH  037%=      5-min Rain = 0
KCR2 200038Z 17014KT 22/07 A2984 RMK A01 T02180066  RH  037%=      5-min Rain = 0
KCR2 200039Z 17016KT 22/07 A2984 RMK A01 T02180067  RH  037%=      5-min Rain = 0
KCR2 200040Z 17013KT 22/07 A2984 RMK A01 T02190067  RH  037%=      5-min Rain = 0
KCR2 200041Z 17015KT 22/07 A2984 RMK A01 T02190067  RH  038%=      5-min Rain = 0
KCR2 200042Z 17014KT 22/07 A2984 RMK A01 T02180068  RH  038%=      5-min Rain = 0
KCR2 200043Z 17015KT 22/07 A2984 RMK A01 T02180068  RH  038%=      5-min Rain = 0
KCR2 200044Z 17015KT 22/07 A2984 RMK A01 T02180069  RH  038%=      5-min Rain = 0
KCR2 200045Z 17014KT 22/07 A2984 RMK A01 T02170069  RH  038%=      5-min Rain = 0
KCR2 200046Z 17015KT 22/07 A2984 RMK A01 T02160069  RH  039%=      5-min Rain = 0
KCR2 200047Z 17015KT 22/07 A2984 RMK A01 T02170070  RH  039%=      5-min Rain = 0
KCR2 200048Z 17015KT 22/07 A2984 RMK A01 T02170070  RH  039%=      5-min Rain = 0
KCR2 200049Z 17015KT 22/07 A2984 RMK A01 T02170071  RH  039%=      5-min Rain = 0
KCR2 200050Z 17015KT 22/07 A2984 RMK A01 T02170071  RH  039%=      5-min Rain = 0
KCR2 200051Z 17014KT 22/07 A2984 RMK A01 T02170071  RH  039%=      5-min Rain = 0
KCR2 200052Z 17015KT 22/07 A2984 RMK A01 T02150071  RH  039%=      5-min Rain = 0
KCR2 200053Z 17014KT 22/07 A2984 RMK A01 T02150071  RH  039%=      5-min Rain = 0
KCR2 200054Z 17014KT 22/07 A2984 RMK A01 T02150071  RH  039%=      5-min Rain = 0
KCR2 200055Z 17014KT 22/07 A2984 RMK A01 T02150071  RH  039%=      5-min Rain = 0
KCR2 200056Z 17016KT 21/07 A2984 RMK A01 T02140071  RH  040%=      5-min Rain = 0
KCR2 200057Z 17016KT 21/07 A2984 RMK A01 T02140071  RH  040%=      5-min Rain = 0
KCR2 200058Z 17013KT 21/07 A2984 RMK A01 T02130071  RH  040%=      5-min Rain = 0
KCR2 200059Z 17014KT 21/07 A2984 RMK A01 T02120071  RH  040%=      5-min Rain = 0
KCR2 200100Z 17013KT 21/07 A2984 RMK A01 T02120071  RH  040%=      5-min Rain = 0
KCR2 200101Z 17014KT 21/07 A2984 RMK A01 T02120072  RH  040%=      5-min Rain = 0
KCR2 200102Z 17015KT 21/07 A2984 RMK A01 T02120072  RH  040%=      5-min Rain = 0
KCR2 200103Z 17013KT 21/07 A2984 RMK A01 T02120072  RH  040%=      5-min Rain = 0
KCR2 200104Z 17014KT 21/07 A2984 RMK A01 T02110071  RH  040%=      5-min Rain = 0
KCR2 200105Z 17015KT 21/07 A2984 RMK A01 T02110072  RH  041%=      5-min Rain = 0
KCR2 200106Z 17016KT 21/07 A2984 RMK A01 T02110072  RH  041%=      5-min Rain = 0
KCR2 200107Z 17015KT 21/07 A2984 RMK A01 T02110072  RH  041%=      5-min Rain = 0
KCR2 200108Z 17017KT 21/07 A2984 RMK A01 T02110072  RH  041%=      5-min Rain = 0
KCR2 200109Z 17017KT 21/07 A2984 RMK A01 T02110072  RH  041%=      5-min Rain = 0
KCR2 200110Z 17014KT 21/07 A2984 RMK A01 T02110073  RH  041%=      5-min Rain = 0
KCR2 200111Z 18015KT 21/07 A2984 RMK A01 T02110073  RH  041%=      5-min Rain = 0
KCR2 200112Z 17015KT 21/07 A2984 RMK A01 T02100073  RH  041%=      5-min Rain = 0
KCR2 200113Z 18016KT 21/07 A2984 RMK A01 T02100073  RH  041%=      5-min Rain = 0
KCR2 200114Z 18016KT 21/07 A2984 RMK A01 T02100073  RH  041%=      5-min Rain = 0
KCR2 200115Z 18014KT 21/07 A2984 RMK A01 T02100074  RH  041%=      5-min Rain = 0
KCR2 200116Z 18016KT 21/07 A2984 RMK A01 T02090074  RH  042%=      5-min Rain = 0
KCR2 200117Z 17016KT 21/08 A2984 RMK A01 T02090075  RH  042%=      5-min Rain = 0
KCR2 200118Z 18017KT 21/08 A2984 RMK A01 T02080075  RH  042%=      5-min Rain = 0
KCR2 200119Z 17015KT 21/08 A2984 RMK A01 T02080075  RH  042%=      5-min Rain = 0
KCR2 200120Z 17017KT 21/08 A2984 RMK A01 T02080075  RH  042%=      5-min Rain = 0
KCR2 200121Z 17017KT 21/08 A2984 RMK A01 T02080076  RH  042%=      5-min Rain = 0
KCR2 200122Z 17016KT 21/08 A2984 RMK A01 T02080076  RH  043%=      5-min Rain = 0
KCR2 200123Z 17016KT 21/08 A2984 RMK A01 T02070077  RH  043%=      5-min Rain = 0
KCR2 200124Z 17015KT 21/08 A2984 RMK A01 T02070077  RH  043%=      5-min Rain = 0
KCR2 200125Z 17015KT 21/08 A2984 RMK A01 T02070077  RH  043%=      5-min Rain = 0
KCR2 200126Z 17018KT 21/08 A2984 RMK A01 T02060078  RH  044%=      5-min Rain = 0
KCR2 200127Z 17017KT 21/08 A2984 RMK A01 T02060078  RH  044%=      5-min Rain = 0
KCR2 200128Z 17017KT 21/08 A2984 RMK A01 T02050078  RH  044%=      5-min Rain = 0
KCR2 200129Z 17019KT 21/08 A2984 RMK A01 T02050079  RH  044%=      5-min Rain = 0
KCR2 200130Z 17018KT 21/08 A2984 RMK A01 T02060079  RH  044%=      5-min Rain = 0
KCR2 200131Z 18015KT 21/08 A2984 RMK A01 T02050079  RH  044%=      5-min Rain = 0
KCR2 200132Z 17017KT 20/08 A2984 RMK A01 T02040079  RH  044%=      5-min Rain = 0
KCR2 200133Z 18015KT 20/08 A2985 RMK A01 T02040079  RH  045%=      5-min Rain = 0
KCR2 200134Z 17018KT 20/08 A2985 RMK A01 T02030080  RH  045%=      5-min Rain = 0
KCR2 200135Z 17017KT 20/08 A2984 RMK A01 T02030079  RH  045%=      5-min Rain = 0
KCR2 200136Z 17017KT 20/08 A2985 RMK A01 T02030080  RH  045%=      5-min Rain = 0
KCR2 200137Z 17016KT 20/08 A2985 RMK A01 T02020080  RH  045%=      5-min Rain = 0
KCR2 200138Z 17016KT 20/08 A2985 RMK A01 T02020080  RH  045%=      5-min Rain = 0
KCR2 200139Z 18016KT 20/08 A2985 RMK A01 T02020080  RH  045%=      5-min Rain = 0
KCR2 200140Z 17015KT 20/08 A2985 RMK A01 T02010080  RH  045%=      5-min Rain = 0
KCR2 200141Z 17016G21KT 20/08 A2985 RMK A01 T02010080  RH  046%=      5-min Rain = 0
KCR2 200142Z 17016KT 20/08 A2985 RMK A01 T02010080  RH  046%=      5-min Rain = 0
KCR2 200143Z 17014KT 20/08 A2985 RMK A01 T02010080  RH  046%=      5-min Rain = 0
KCR2 200144Z 18015KT 20/08 A2985 RMK A01 T02000080  RH  046%=      5-min Rain = 0
KCR2 200145Z 18015KT 20/08 A2985 RMK A01 T02000080  RH  046%=      5-min Rain = 0
KCR2 200146Z 18016KT 20/08 A2985 RMK A01 T02000081  RH  046%=      5-min Rain = 0
KCR2 200147Z 18016KT 20/08 A2985 RMK A01 T02000081  RH  046%=      5-min Rain = 0
KCR2 200148Z 17015G20KT 20/08 A2985 RMK A01 T02000081  RH  046%=      5-min Rain = 0
KCR2 200149Z 18015KT 20/08 A2985 RMK A01 T02000081  RH  046%=      5-min Rain = 0
KCR2 200150Z 17015KT 20/08 A2985 RMK A01 T02000081  RH  046%=      5-min Rain = 0
KCR2 200151Z 17014KT 20/08 A2985 RMK A01 T02000081  RH  046%=      5-min Rain = 0
KCR2 200152Z 17015KT 20/08 A2985 RMK A01 T02000081  RH  046%=      5-min Rain = 0
KCR2 200153Z 17014KT 20/08 A2985 RMK A01 T01990081  RH  046%=      5-min Rain = 0
KCR2 200154Z 17013KT 20/08 A2985 RMK A01 T01990081  RH  047%=      5-min Rain = 0
KCR2 200155Z 17011KT 20/08 A2985 RMK A01 T01980081  RH  047%=      5-min Rain = 0
KCR2 200156Z 17013KT 20/08 A2985 RMK A01 T01970081  RH  047%=      5-min Rain = 0
KCR2 200157Z 16013KT 20/08 A2985 RMK A01 T01970081  RH  047%=      5-min Rain = 0
KCR2 200158Z 17012KT 20/08 A2985 RMK A01 T01970082  RH  047%=      5-min Rain = 0
KCR2 200159Z 17011KT 20/08 A2985 RMK A01 T01970082  RH  047%=      5-min Rain = 0
KCR2 200200Z 16012KT 20/08 A2985 RMK A01 T01960082  RH  047%=      5-min Rain = 0
KCR2 200201Z 16012KT 20/08 A2985 RMK A01 T01960082  RH  048%=      5-min Rain = 0
KCR2 200202Z 16011KT 20/08 A2985 RMK A01 T01950082  RH  048%=      5-min Rain = 0
KCR2 200203Z 16011KT 20/08 A2985 RMK A01 T01950082  RH  048%=      5-min Rain = 0
KCR2 200204Z 16011KT 20/08 A2985 RMK A01 T01950082  RH  048%=      5-min Rain = 0
KCR2 200205Z 16009KT 20/08 A2985 RMK A01 T01950082  RH  048%=      5-min Rain = 0
KCR2 200206Z 16011KT 19/08 A2985 RMK A01 T01940082  RH  048%=      5-min Rain = 0
KCR2 200207Z 16011KT 19/08 A2985 RMK A01 T01940083  RH  048%=      5-min Rain = 0
KCR2 200208Z 16011KT 19/08 A2986 RMK A01 T01940083  RH  049%=      5-min Rain = 0
KCR2 200209Z 16010KT 19/08 A2986 RMK A01 T01940083  RH  049%=      5-min Rain = 0
KCR2 200210Z 16012KT 19/08 A2986 RMK A01 T01940083  RH  049%=      5-min Rain = 0
KCR2 200211Z 17014KT 19/08 A2986 RMK A01 T01940084  RH  049%=      5-min Rain = 0
KCR2 200212Z 17012KT 19/09 A2986 RMK A01 T01940085  RH  049%=      5-min Rain = 0
KCR2 200213Z 17011KT 20/08 A2986 RMK A01 T01950084  RH  049%=      5-min Rain = 0
KCR2 200214Z 17011KT 19/09 A2986 RMK A01 T01940085  RH  049%=      5-min Rain = 0
KCR2 200215Z 16014KT 19/09 A2986 RMK A01 T01930085  RH  049%=      5-min Rain = 0
KCR2 200216Z 17012KT 19/09 A2986 RMK A01 T01930085  RH  049%=      5-min Rain = 0
KCR2 200217Z 17011KT 19/09 A2986 RMK A01 T01940086  RH  050%=      5-min Rain = 0
KCR2 200218Z 17010KT 19/09 A2986 RMK A01 T01930085  RH  050%=      5-min Rain = 0
KCR2 200219Z 16011KT 19/09 A2986 RMK A01 T01920085  RH  050%=      5-min Rain = 0
KCR2 200220Z 17012KT 19/09 A2986 RMK A01 T01920086  RH  050%=      5-min Rain = 0
KCR2 200221Z 17012KT 19/09 A2986 RMK A01 T01920087  RH  050%=      5-min Rain = 0
KCR2 200222Z 17011KT 19/09 A2986 RMK A01 T01920086  RH  050%=      5-min Rain = 0
KCR2 200223Z 17013KT 19/09 A2986 RMK A01 T01920087  RH  051%=      5-min Rain = 0
KCR2 200224Z 17010KT 19/09 A2986 RMK A01 T01920087  RH  051%=      5-min Rain = 0
KCR2 200225Z 17011KT 19/09 A2986 RMK A01 T01910087  RH  051%=      5-min Rain = 0
KCR2 200226Z 17013KT 19/09 A2986 RMK A01 T01910088  RH  051%=      5-min Rain = 0
KCR2 200227Z 17013KT 19/09 A2986 RMK A01 T01910088  RH  051%=      5-min Rain = 0
KCR2 200228Z 17012KT 19/09 A2986 RMK A01 T01910088  RH  051%=      5-min Rain = 0
KCR2 200229Z 17012KT 19/09 A2986 RMK A01 T01910089  RH  051%=      5-min Rain = 0
KCR2 200230Z 17012KT 19/09 A2986 RMK A01 T01900089  RH  052%=      5-min Rain = 0
KCR2 200231Z 17012KT 19/09 A2986 RMK A01 T01900089  RH  052%=      5-min Rain = 0
KCR2 200232Z 17014KT 19/09 A2986 RMK A01 T01910089  RH  052%=      5-min Rain = 0
KCR2 200233Z 17013KT 19/09 A2986 RMK A01 T01910089  RH  052%=      5-min Rain = 0
KCR2 200234Z 17012KT 19/09 A2986 RMK A01 T01910090  RH  052%=      5-min Rain = 0
KCR2 200235Z 17013KT 19/09 A2986 RMK A01 T01910090  RH  052%=      5-min Rain = 0
KCR2 200236Z 17015KT 19/09 A2986 RMK A01 T01910090  RH  052%=      5-min Rain = 0
KCR2 200237Z 17014KT 19/09 A2986 RMK A01 T01910091  RH  052%=      5-min Rain = 0
KCR2 200238Z 17014KT 19/09 A2986 RMK A01 T01920091  RH  052%=      5-min Rain = 0
KCR2 200239Z 17013KT 19/09 A2986 RMK A01 T01920091  RH  052%=      5-min Rain = 0
KCR2 200240Z 17012KT 19/09 A2986 RMK A01 T01920091  RH  052%=      5-min Rain = 0
KCR2 200241Z 17012KT 19/09 A2986 RMK A01 T01910091  RH  052%=      5-min Rain = 0
KCR2 200242Z 17012KT 19/09 A2986 RMK A01 T01900091  RH  053%=      5-min Rain = 0
KCR2 200243Z 17011KT 19/09 A2986 RMK A01 T01900092  RH  053%=      5-min Rain = 0
KCR2 200244Z 16012KT 19/09 A2986 RMK A01 T01900092  RH  053%=      5-min Rain = 0
KCR2 200245Z 17012KT 19/09 A2986 RMK A01 T01900093  RH  053%=      5-min Rain = 0
KCR2 200246Z 17013KT 19/09 A2986 RMK A01 T01890093  RH  053%=      5-min Rain = 0
KCR2 200247Z 17013KT 19/09 A2986 RMK A01 T01890093  RH  054%=      5-min Rain = 0
KCR2 200248Z 16012KT 19/09 A2986 RMK A01 T01890094  RH  054%=      5-min Rain = 0
KCR2 200249Z 17012KT 19/09 A2986 RMK A01 T01890094  RH  054%=      5-min Rain = 0
KCR2 200250Z 17013KT 19/09 A2986 RMK A01 T01890094  RH  054%=      5-min Rain = 0
KCR2 200251Z 17012KT 19/10 A2986 RMK A01 T01890095  RH  054%=      5-min Rain = 0
KCR2 200252Z 17012KT 19/10 A2986 RMK A01 T01890095  RH  054%=      5-min Rain = 0
KCR2 200253Z 17010KT 19/10 A2986 RMK A01 T01890095  RH  054%=      5-min Rain = 0
KCR2 200254Z 17011KT 19/10 A2986 RMK A01 T01890095  RH  055%=      5-min Rain = 0
KCR2 200255Z 17012KT 19/10 A2986 RMK A01 T01880095  RH  055%=      5-min Rain = 0
KCR2 200256Z 17012KT 19/10 A2986 RMK A01 T01880096  RH  055%=      5-min Rain = 0
KCR2 200257Z 17012KT 19/10 A2986 RMK A01 T01880096  RH  055%=      5-min Rain = 0
KCR2 200258Z 18013KT 19/10 A2986 RMK A01 T01880097  RH  055%=      5-min Rain = 0
KCR2 200259Z 17015KT 19/10 A2986 RMK A01 T01890097  RH  055%=      5-min Rain = 0
KCR2 200300Z 17015KT 19/10 A2986 RMK A01 T01890098  RH  055%=      5-min Rain = 0
KCR2 200301Z 17016KT 19/10 A2986 RMK A01 T01890098  RH  055%=      5-min Rain = 0
KCR2 200302Z 18015KT 19/10 A2986 RMK A01 T01890098  RH  055%=      5-min Rain = 0
KCR2 200303Z 17014KT 19/10 A2986 RMK A01 T01890098  RH  055%=      5-min Rain = 0
KCR2 200304Z 18014KT 19/10 A2986 RMK A01 T01890098  RH  055%=      5-min Rain = 0
KCR2 200305Z 18017KT 19/10 A2986 RMK A01 T01890098  RH  056%=      5-min Rain = 0
KCR2 200306Z 18014KT 19/10 A2986 RMK A01 T01890099  RH  056%=      5-min Rain = 0
KCR2 200307Z 18015KT 19/10 A2986 RMK A01 T01890099  RH  056%=      5-min Rain = 0
KCR2 200308Z 18015KT 19/10 A2986 RMK A01 T01890099  RH  056%=      5-min Rain = 0
KCR2 200309Z 18018KT 19/10 A2986 RMK A01 T01890099  RH  056%=      5-min Rain = 0
KCR2 200310Z 18015KT 19/10 A2986 RMK A01 T01890099  RH  056%=      5-min Rain = 0
KCR2 200311Z 18017KT 19/10 A2986 RMK A01 T01880099  RH  056%=      5-min Rain = 0
KCR2 200312Z 18016KT 19/10 A2986 RMK A01 T01880100  RH  056%=      5-min Rain = 0
KCR2 200313Z 18020KT 19/10 A2986 RMK A01 T01890100  RH  056%=      5-min Rain = 0
KCR2 200314Z 18018KT 19/10 A2986 RMK A01 T01890100  RH  056%=      5-min Rain = 0
KCR2 200315Z 18020KT 19/10 A2986 RMK A01 T01890101  RH  056%=      5-min Rain = 0
KCR2 200316Z 18017KT 19/10 A2986 RMK A01 T01900101  RH  056%=      5-min Rain = 0
KCR2 200317Z 18020KT 19/10 A2986 RMK A01 T01900101  RH  056%=      5-min Rain = 0
KCR2 200318Z 18018KT 19/10 A2986 RMK A01 T01900101  RH  056%=      5-min Rain = 0
KCR2 200319Z 18018KT 19/10 A2986 RMK A01 T01900101  RH  056%=      5-min Rain = 0
KCR2 200320Z 18016KT 19/10 A2986 RMK A01 T01900101  RH  056%=      5-min Rain = 0
KCR2 200321Z 18014KT 19/10 A2986 RMK A01 T01890101  RH  057%=      5-min Rain = 0
KCR2 200322Z 18016KT 19/10 A2986 RMK A01 T01880101  RH  057%=      5-min Rain = 0
KCR2 200323Z 18019KT 19/10 A2986 RMK A01 T01870101  RH  057%=      5-min Rain = 0
KCR2 200324Z 18020KT 19/10 A2986 RMK A01 T01880102  RH  057%=      5-min Rain = 0
KCR2 200325Z 18018KT 19/10 A2986 RMK A01 T01890102  RH  057%=      5-min Rain = 0
KCR2 200326Z 18016KT 19/10 A2986 RMK A01 T01890102  RH  057%=      5-min Rain = 0
KCR2 200327Z 18015KT 19/10 A2986 RMK A01 T01880102  RH  057%=      5-min Rain = 0
KCR2 200328Z 18018KT 19/10 A2986 RMK A01 T01880103  RH  058%=      5-min Rain = 0
KCR2 200329Z 19019KT 19/10 A2986 RMK A01 T01880103  RH  058%=      5-min Rain = 0
KCR2 200330Z 18018G23KT 19/10 A2986 RMK A01 T01880103  RH  058%=      5-min Rain = 0
KCR2 200331Z 18017KT 19/10 A2986 RMK A01 T01880103  RH  058%=      5-min Rain = 0
KCR2 200332Z 19018KT 19/10 A2986 RMK A01 T01880103  RH  058%=      5-min Rain = 0
KCR2 200333Z 18019KT 19/10 A2985 RMK A01 T01880103  RH  058%=      5-min Rain = 0
KCR2 200334Z 18022KT 19/10 A2985 RMK A01 T01880104  RH  058%=      5-min Rain = 0
KCR2 200335Z 18020KT 19/11 A2985 RMK A01 T01890105  RH  058%=      5-min Rain = 0
KCR2 200336Z 18022KT 19/10 A2985 RMK A01 T01890104  RH  058%=      5-min Rain = 0
KCR2 200337Z 18022KT 19/11 A2986 RMK A01 T01890105  RH  058%=      5-min Rain = 0
KCR2 200338Z 18020KT 19/11 A2986 RMK A01 T01900105  RH  058%=      5-min Rain = 0
KCR2 200339Z 18018KT 19/11 A2985 RMK A01 T01900105  RH  058%=      5-min Rain = 0
KCR2 200340Z 18017KT 19/11 A2985 RMK A01 T01890105  RH  058%=      5-min Rain = 0
KCR2 200341Z 18019KT 19/11 A2986 RMK A01 T01880105  RH  058%=      5-min Rain = 0
KCR2 200342Z 18018KT 19/11 A2985 RMK A01 T01880106  RH  059%=      5-min Rain = 0
KCR2 200343Z 18018KT 19/11 A2986 RMK A01 T01880106  RH  059%=      5-min Rain = 0
KCR2 200344Z 18017KT 19/11 A2986 RMK A01 T01880106  RH  059%=      5-min Rain = 0
KCR2 200345Z 18020KT 19/11 A2985 RMK A01 T01880105  RH  059%=      5-min Rain = 0
KCR2 200346Z 18021KT 19/11 A2986 RMK A01 T01890106  RH  059%=      5-min Rain = 0
KCR2 200347Z 18018KT 19/11 A2986 RMK A01 T01890106  RH  058%=      5-min Rain = 0
KCR2 200348Z 18016KT 19/11 A2986 RMK A01 T01890106  RH  058%=      5-min Rain = 0
KCR2 200349Z 18018KT 19/11 A2986 RMK A01 T01890106  RH  059%=      5-min Rain = 0
KCR2 200350Z 18019KT 19/11 A2986 RMK A01 T01890106  RH  059%=      5-min Rain = 0
KCR2 200351Z 18018KT 19/11 A2986 RMK A01 T01890107  RH  059%=      5-min Rain = 0
KCR2 200352Z 18018KT 19/11 A2986 RMK A01 T01890107  RH  059%=      5-min Rain = 0
KCR2 200353Z 18020KT 19/11 A2986 RMK A01 T01880107  RH  059%=      5-min Rain = 0
KCR2 200354Z 18019KT 19/11 A2985 RMK A01 T01880106  RH  059%=      5-min Rain = 0
KCR2 200355Z 18017KT 19/11 A2985 RMK A01 T01890106  RH  059%=      5-min Rain = 0
KCR2 200356Z 18018KT 19/11 A2985 RMK A01 T01880107  RH  059%=      5-min Rain = 0
KCR2 200357Z 18020KT 19/11 A2985 RMK A01 T01870106  RH  059%=      5-min Rain = 0
KCR2 200358Z 18020KT 19/11 A2985 RMK A01 T01880107  RH  059%=      5-min Rain = 0
KCR2 200359Z 19018KT 19/11 A2985 RMK A01 T01880107  RH  059%=      5-min Rain = 0
KCR2 200400Z 19017KT 19/11 A2986 RMK A01 T01890107  RH  059%=      5-min Rain = 0
KCR2 200401Z 18018KT 19/11 A2986 RMK A01 T01880107  RH  059%=      5-min Rain = 0
KCR2 200402Z 19017KT 19/11 A2986 RMK A01 T01880107  RH  059%=      5-min Rain = 0
KCR2 200403Z 19019G24KT 19/11 A2986 RMK A01 T01880107  RH  059%=      5-min Rain = 0
KCR2 200404Z 18019G24KT 19/11 A2986 RMK A01 T01880107  RH  059%=      5-min Rain = 0
KCR2 200405Z 18017KT 19/11 A2986 RMK A01 T01870106  RH  059%=      5-min Rain = 0
KCR2 200406Z 18017G22KT 19/11 A2986 RMK A01 T01870107  RH  059%=      5-min Rain = 0
KCR2 200407Z 18017KT 19/11 A2986 RMK A01 T01870107  RH  060%=      5-min Rain = 0
KCR2 200408Z 19018KT 19/11 A2986 RMK A01 T01870107  RH  060%=      5-min Rain = 0
KCR2 200409Z 18017KT 19/11 A2986 RMK A01 T01870107  RH  060%=      5-min Rain = 0
KCR2 200410Z 18016KT 19/11 A2986 RMK A01 T01870107  RH  060%=      5-min Rain = 0
KCR2 200411Z 19016KT 19/11 A2986 RMK A01 T01860107  RH  060%=      5-min Rain = 0
KCR2 200412Z 18018KT 19/11 A2986 RMK A01 T01860107  RH  060%=      5-min Rain = 0
KCR2 200413Z 18017KT 19/11 A2986 RMK A01 T01860107  RH  060%=      5-min Rain = 0
KCR2 200414Z 19016KT 19/11 A2986 RMK A01 T01860107  RH  060%=      5-min Rain = 0
KCR2 200415Z 18016KT 19/11 A2986 RMK A01 T01860107  RH  060%=      5-min Rain = 0
KCR2 200416Z 19016KT 19/11 A2986 RMK A01 T01860107  RH  060%=      5-min Rain = 0
KCR2 200417Z 19017KT 19/11 A2986 RMK A01 T01850107  RH  060%=      5-min Rain = 0
KCR2 200418Z 18018KT 19/11 A2986 RMK A01 T01850107  RH  060%=      5-min Rain = 0
KCR2 200419Z 18015G22KT 19/11 A2986 RMK A01 T01850107  RH  060%=      5-min Rain = 0
KCR2 200420Z 19016G21KT 19/11 A2986 RMK A01 T01860107  RH  060%=      5-min Rain = 0
KCR2 200421Z 19015KT 19/11 A2986 RMK A01 T01850107  RH  060%=      5-min Rain = 0
KCR2 200422Z 18015KT 19/11 A2986 RMK A01 T01850107  RH  060%=      5-min Rain = 0
KCR2 200423Z 18016KT 19/11 A2986 RMK A01 T01850107  RH  060%=      5-min Rain = 0
KCR2 200424Z 19018KT 19/11 A2986 RMK A01 T01850107  RH  060%=      5-min Rain = 0
KCR2 200425Z 18017KT 19/11 A2986 RMK A01 T01850107  RH  060%=      5-min Rain = 0
KCR2 200426Z 19015KT 19/11 A2986 RMK A01 T01850107  RH  060%=      5-min Rain = 0
KCR2 200427Z 19015KT 19/11 A2986 RMK A01 T01850107  RH  061%=      5-min Rain = 0
KCR2 200428Z 19017KT 19/11 A2986 RMK A01 T01850107  RH  061%=      5-min Rain = 0
KCR2 200429Z 19018G23KT 18/11 A2986 RMK A01 T01840108  RH  061%=      5-min Rain = 0
KCR2 200430Z 19016KT 19/11 A2986 RMK A01 T01850108  RH  061%=      5-min Rain = 0
KCR2 200431Z 19017KT 19/11 A2986 RMK A01 T01850108  RH  061%=      5-min Rain = 0
KCR2 200432Z 19015KT 19/11 A2987 RMK A01 T01850108  RH  061%=      5-min Rain = 0
KCR2 200433Z 19013KT 19/11 A2987 RMK A01 T01850107  RH  061%=      5-min Rain = 0
KCR2 200434Z 19015KT 18/11 A2987 RMK A01 T01830107  RH  061%=      5-min Rain = 0
KCR2 200435Z 19015KT 18/11 A2987 RMK A01 T01830108  RH  061%=      5-min Rain = 0
KCR2 200436Z 18015KT 18/11 A2987 RMK A01 T01830108  RH  061%=      5-min Rain = 0
KCR2 200437Z 18015KT 18/11 A2987 RMK A01 T01840108  RH  061%=      5-min Rain = 0
KCR2 200438Z 19016KT 18/11 A2987 RMK A01 T01840108  RH  061%=      5-min Rain = 0
KCR2 200439Z 18016KT 18/11 A2987 RMK A01 T01840108  RH  061%=      5-min Rain = 0
KCR2 200440Z 18017G22KT 18/11 A2987 RMK A01 T01840108  RH  061%=      5-min Rain = 0
KCR2 200441Z 18017KT 18/11 A2987 RMK A01 T01840108  RH  061%=      5-min Rain = 0
KCR2 200442Z 18015G20KT 18/11 A2987 RMK A01 T01840109  RH  061%=      5-min Rain = 0
KCR2 200443Z 18015KT 18/11 A2986 RMK A01 T01840109  RH  061%=      5-min Rain = 0
KCR2 200444Z 19015KT 18/11 A2986 RMK A01 T01840108  RH  061%=      5-min Rain = 0
KCR2 200445Z 18014KT 18/11 A2986 RMK A01 T01840109  RH  062%=      5-min Rain = 0
KCR2 200446Z 18017KT 18/11 A2986 RMK A01 T01830109  RH  062%=      5-min Rain = 0
KCR2 200447Z 18016KT 18/11 A2986 RMK A01 T01830109  RH  062%=      5-min Rain = 0
KCR2 200448Z 18017KT 18/11 A2986 RMK A01 T01840109  RH  062%=      5-min Rain = 0
KCR2 200449Z 19016KT 18/11 A2986 RMK A01 T01840109  RH  062%=      5-min Rain = 0
KCR2 200450Z 19012KT 18/11 A2986 RMK A01 T01830109  RH  062%=      5-min Rain = 0
KCR2 200451Z 19013KT 18/11 A2986 RMK A01 T01830109  RH  062%=      5-min Rain = 0
KCR2 200452Z 18016KT 18/11 A2986 RMK A01 T01820109  RH  062%=      5-min Rain = 0
KCR2 200453Z 18017KT 18/11 A2986 RMK A01 T01830109  RH  062%=      5-min Rain = 0
KCR2 200454Z 19015KT 18/11 A2986 RMK A01 T01840109  RH  062%=      5-min Rain = 0
KCR2 200455Z 18017KT 18/11 A2986 RMK A01 T01840110  RH  062%=      5-min Rain = 0
KCR2 200456Z 18017KT 18/11 A2986 RMK A01 T01840109  RH  062%=      5-min Rain = 0
KCR2 200457Z 18014KT 18/11 A2986 RMK A01 T01840109  RH  062%=      5-min Rain = 0
KCR2 200458Z 18018KT 18/11 A2986 RMK A01 T01840109  RH  062%=      5-min Rain = 0
KCR2 200459Z 18017KT 18/11 A2986 RMK A01 T01830109  RH  062%=      5-min Rain = 0
KCR2 200500Z 18016KT 18/11 A2986 RMK A01 T01840109  RH  062%=      5-min Rain = 0
KCR2 200501Z 18017KT 18/11 A2986 RMK A01 T01840109  RH  062%=      5-min Rain = 0
KCR2 200502Z 18016KT 18/11 A2986 RMK A01 T01840110  RH  062%=      5-min Rain = 0
KCR2 200503Z 18015KT 18/11 A2986 RMK A01 T01840110  RH  062%=      5-min Rain = 0
KCR2 200504Z 18017KT 18/11 A2986 RMK A01 T01840109  RH  062%=      5-min Rain = 0
KCR2 200505Z 18017KT 18/11 A2986 RMK A01 T01840110  RH  062%=      5-min Rain = 0
KCR2 200506Z 18018KT 18/11 A2986 RMK A01 T01840110  RH  062%=      5-min Rain = 0
KCR2 200507Z 18019G24KT 19/11 A2986 RMK A01 T01850110  RH  062%=      5-min Rain = 0
KCR2 200508Z 18018KT 19/11 A2986 RMK A01 T01850110  RH  062%=      5-min Rain = 0
KCR2 200509Z 18018G24KT 19/11 A2986 RMK A01 T01850110  RH  061%=      5-min Rain = 0
KCR2 200510Z 18016KT 19/11 A2986 RMK A01 T01850110  RH  061%=      5-min Rain = 0
KCR2 200511Z 19017KT 19/11 A2986 RMK A01 T01850110  RH  061%=      5-min Rain = 0
KCR2 200512Z 18019KT 19/11 A2986 RMK A01 T01850110  RH  062%=      5-min Rain = 0
KCR2 200513Z 19017KT 19/11 A2986 RMK A01 T01850110  RH  062%=      5-min Rain = 0
KCR2 200514Z 18017KT 19/11 A2986 RMK A01 T01850110  RH  062%=      5-min Rain = 0
KCR2 200515Z 18017G22KT 19/11 A2986 RMK A01 T01850110  RH  062%=      5-min Rain = 0
KCR2 200516Z 18017KT 18/11 A2986 RMK A01 T01840110  RH  062%=      5-min Rain = 0
KCR2 200517Z 18016KT 18/11 A2986 RMK A01 T01840110  RH  062%=      5-min Rain = 0
KCR2 200518Z 18018KT 18/11 A2986 RMK A01 T01840110  RH  062%=      5-min Rain = 0
KCR2 200519Z 19016KT 19/11 A2986 RMK A01 T01850110  RH  062%=      5-min Rain = 0
KCR2 200520Z 18016KT 19/11 A2986 RMK A01 T01850110  RH  062%=      5-min Rain = 0
KCR2 200521Z 18016G21KT 19/11 A2986 RMK A01 T01850110  RH  062%=      5-min Rain = 0
KCR2 200522Z 18015KT 19/11 A2986 RMK A01 T01850110  RH  062%=      5-min Rain = 0
KCR2 200523Z 19014G19KT 19/11 A2986 RMK A01 T01850110  RH  062%=      5-min Rain = 0
KCR2 200524Z 19017G23KT 19/11 A2986 RMK A01 T01850110  RH  062%=      5-min Rain = 0
KCR2 200525Z 19017G22KT 19/11 A2986 RMK A01 T01850110  RH  062%=      5-min Rain = 0
KCR2 200526Z 18016KT 19/11 A2986 RMK A01 T01850110  RH  062%=      5-min Rain = 0
KCR2 200527Z 19016KT 19/11 A2986 RMK A01 T01850110  RH  061%=      5-min Rain = 0
KCR2 200528Z 18017G23KT 19/11 A2986 RMK A01 T01850110  RH  062%=      5-min Rain = 0
KCR2 200529Z 19015KT 19/11 A2986 RMK A01 T01850110  RH  062%=      5-min Rain = 0
KCR2 200530Z 18017KT 19/11 A2986 RMK A01 T01850110  RH  062%=      5-min Rain = 0
KCR2 200531Z 18018KT 19/11 A2986 RMK A01 T01850110  RH  062%=      5-min Rain = 0
KCR2 200532Z 19016KT 19/11 A2986 RMK A01 T01850110  RH  062%=      5-min Rain = 0
KCR2 200533Z 19018KT 19/11 A2986 RMK A01 T01850110  RH  062%=      5-min Rain = 0
KCR2 200534Z 19017KT 19/11 A2986 RMK A01 T01850110  RH  062%=      5-min Rain = 0
KCR2 200535Z 19018KT 19/11 A2986 RMK A01 T01850110  RH  062%=      5-min Rain = 0
KCR2 200536Z 18016KT 19/11 A2986 RMK A01 T01850110  RH  062%=      5-min Rain = 0
KCR2 200537Z 18018KT 19/11 A2986 RMK A01 T01850110  RH  062%=      5-min Rain = 0
KCR2 200538Z 18019KT 19/11 A2986 RMK A01 T01850110  RH  062%=      5-min Rain = 0
KCR2 200539Z 18018G24KT 19/11 A2986 RMK A01 T01850110  RH  062%=      5-min Rain = 0
KCR2 200540Z 18018KT 19/11 A2986 RMK A01 T01860111  RH  062%=      5-min Rain = 0
KCR2 200541Z 18018KT 19/11 A2986 RMK A01 T01850110  RH  062%=      5-min Rain = 0
KCR2 200542Z 19017KT 19/11 A2985 RMK A01 T01850111  RH  062%=      5-min Rain = 0
KCR2 200543Z 19018KT 19/11 A2985 RMK A01 T01850110  RH  062%=      5-min Rain = 0
KCR2 200544Z 18018KT 19/11 A2985 RMK A01 T01850111  RH  062%=      5-min Rain = 0
KCR2 200545Z 18020KT 19/11 A2985 RMK A01 T01850110  RH  062%=      5-min Rain = 0
KCR2 200546Z 18018KT 19/11 A2985 RMK A01 T01850111  RH  062%=      5-min Rain = 0
KCR2 200547Z 18017KT 19/11 A2985 RMK A01 T01850111  RH  062%=      5-min Rain = 0
KCR2 200548Z 19018KT 18/11 A2985 RMK A01 T01840110  RH  062%=      5-min Rain = 0
KCR2 200549Z 18018KT 18/11 A2985 RMK A01 T01840110  RH  062%=      5-min Rain = 0
KCR2 200550Z 18018KT 18/11 A2985 RMK A01 T01840110  RH  062%=      5-min Rain = 0
KCR2 200551Z 18019KT 18/11 A2985 RMK A01 T01840111  RH  062%=      5-min Rain = 0
KCR2 200552Z 18018KT 18/11 A2985 RMK A01 T01840110  RH  062%=      5-min Rain = 0
KCR2 200553Z 18018KT 19/11 A2985 RMK A01 T01850111  RH  062%=      5-min Rain = 0
KCR2 200554Z 18019G24KT 19/11 A2985 RMK A01 T01850111  RH  062%=      5-min Rain = 0
KCR2 200555Z 18021KT 19/11 A2985 RMK A01 T01850111  RH  062%=      5-min Rain = 0
KCR2 200556Z 18020G25KT 18/11 A2985 RMK A01 T01840111  RH  062%=      5-min Rain = 0
KCR2 200557Z 19017KT 18/11 A2985 RMK A01 T01840111  RH  062%=      5-min Rain = 0
KCR2 200558Z 18020KT 18/11 A2985 RMK A01 T01840111  RH  062%=      5-min Rain = 0
KCR2 200559Z 18017KT 18/11 A2985 RMK A01 T01840111  RH  062%=      5-min Rain = 0

Page generated in 0.0791 seconds.